Observation data for Earth on 06/25/2019      Previous  Date  Next       Current Mesonet Observations  Soil Data  Daily Summary Page  Observations in Plain Language
KEA1 250500Z 13013KT 22/18 A30 RMK A01 T02160176  RH  078%=      5-min Rain = 0
KEA1 250501Z 13012KT 22/18 A30 RMK A01 T02160177  RH  078%=      5-min Rain = 0
KEA1 250502Z 14014KT 22/18 A30 RMK A01 T02160178  RH  079%=      5-min Rain = 0
KEA1 250503Z 13013KT 22/18 A3001 RMK A01 T02150178  RH  079%=      5-min Rain = 0
KEA1 250504Z 13013KT 22/18 A3001 RMK A01 T02150179  RH  080%=      5-min Rain = 0
KEA1 250505Z 13014KT 22/18 A3001 RMK A01 T02150180  RH  080%=      5-min Rain = 0
KEA1 250506Z 14014KT 22/18 A30 RMK A01 T02150180  RH  081%=      5-min Rain = 0
KEA1 250507Z 14015KT 22/18 A30 RMK A01 T02160182  RH  081%=      5-min Rain = 0
KEA1 250508Z 14014KT 22/18 A30 RMK A01 T02160183  RH  081%=      5-min Rain = 0
KEA1 250509Z 14014KT 22/18 A30 RMK A01 T02160183  RH  081%=      5-min Rain = 0
KEA1 250510Z 13011KT 22/18 A30 RMK A01 T02160183  RH  082%=      5-min Rain = 0
KEA1 250511Z 13014KT 22/18 A30 RMK A01 T02160184  RH  082%=      5-min Rain = 0
KEA1 250512Z 13014KT 22/19 A30 RMK A01 T02160185  RH  082%=      5-min Rain = 0
KEA1 250513Z 14012KT 22/19 A30 RMK A01 T02160185  RH  082%=      5-min Rain = 0
KEA1 250514Z 14014KT 22/19 A30 RMK A01 T02160185  RH  083%=      5-min Rain = 0
KEA1 250515Z 13014KT 22/19 A30 RMK A01 T02160186  RH  083%=      5-min Rain = 0
KEA1 250516Z 13012KT 22/19 A30 RMK A01 T02170187  RH  083%=      5-min Rain = 0
KEA1 250517Z 13013KT 22/19 A30 RMK A01 T02170187  RH  083%=      5-min Rain = 0
KEA1 250518Z 14013KT 22/19 A30 RMK A01 T02160187  RH  083%=      5-min Rain = 0
KEA1 250519Z 13013KT 22/19 A30 RMK A01 T02160187  RH  084%=      5-min Rain = 0
KEA1 250520Z 14012KT 22/19 A30 RMK A01 T02160188  RH  084%=      5-min Rain = 0
KEA1 250521Z 14012KT 22/19 A30 RMK A01 T02160187  RH  084%=      5-min Rain = 0
KEA1 250522Z 13015KT 22/19 A30 RMK A01 T02150188  RH  084%=      5-min Rain = 0
KEA1 250523Z 13014KT 22/19 A30 RMK A01 T02160189  RH  085%=      5-min Rain = 0
KEA1 250524Z 14014KT 22/19 A30 RMK A01 T02160188  RH  084%=      5-min Rain = 0
KEA1 250525Z 13012KT 22/19 A30 RMK A01 T02160189  RH  085%=      5-min Rain = 0
KEA1 250526Z 13013KT 22/19 A30 RMK A01 T02160189  RH  085%=      5-min Rain = 0
KEA1 250527Z 13012KT 22/19 A30 RMK A01 T02160189  RH  085%=      5-min Rain = 0
KEA1 250528Z 14014KT 22/19 A30 RMK A01 T02150189  RH  085%=      5-min Rain = 0
KEA1 250529Z 14013KT 22/19 A30 RMK A01 T02150190  RH  085%=      5-min Rain = 0
KEA1 250530Z 14012KT 22/19 A30 RMK A01 T02150190  RH  085%=      5-min Rain = 0
KEA1 250531Z 14013KT 22/19 A30 RMK A01 T02150190  RH  085%=      5-min Rain = 0
KEA1 250532Z 14013KT 22/19 A30 RMK A01 T02150190  RH  086%=      5-min Rain = 0
KEA1 250533Z 14013KT 22/19 A30 RMK A01 T02150190  RH  086%=      5-min Rain = 0
KEA1 250534Z 14011KT 22/19 A30 RMK A01 T02150191  RH  086%=      5-min Rain = 0
KEA1 250535Z 14013KT 22/19 A30 RMK A01 T02150191  RH  086%=      5-min Rain = 0
KEA1 250536Z 14015KT 22/19 A30 RMK A01 T02150191  RH  086%=      5-min Rain = 0
KEA1 250537Z 13014KT 22/19 A30 RMK A01 T02150191  RH  086%=      5-min Rain = 0
KEA1 250538Z 14014KT 22/19 A30 RMK A01 T02160191  RH  086%=      5-min Rain = 0
KEA1 250539Z 13012KT 22/19 A30 RMK A01 T02160192  RH  086%=      5-min Rain = 0
KEA1 250540Z 13014KT 22/19 A30 RMK A01 T02160192  RH  086%=      5-min Rain = 0
KEA1 250541Z 14014KT 22/19 A30 RMK A01 T02160192  RH  086%=      5-min Rain = 0
KEA1 250542Z 14014KT 22/19 A30 RMK A01 T02160192  RH  086%=      5-min Rain = 0
KEA1 250543Z 14014KT 22/19 A30 RMK A01 T02160192  RH  086%=      5-min Rain = 0
KEA1 250544Z 14015KT 22/19 A30 RMK A01 T02160192  RH  086%=      5-min Rain = 0
KEA1 250545Z 14015KT 22/19 A30 RMK A01 T02160192  RH  086%=      5-min Rain = 0
KEA1 250546Z 14013G18KT 22/19 A30 RMK A01 T02160192  RH  086%=      5-min Rain = 0
KEA1 250547Z 14013KT 22/19 A30 RMK A01 T02160192  RH  086%=      5-min Rain = 0
KEA1 250548Z 14015KT 22/19 A30 RMK A01 T02160192  RH  086%=      5-min Rain = 0
KEA1 250549Z 14016KT 22/19 A30 RMK A01 T02160192  RH  086%=      5-min Rain = 0
KEA1 250550Z 14014KT 22/19 A30 RMK A01 T02160191  RH  085%=      5-min Rain = 0
KEA1 250551Z 14015KT 22/19 A2999 RMK A01 T02160190  RH  085%=      5-min Rain = 0
KEA1 250552Z 14017KT 22/19 A2999 RMK A01 T02160190  RH  085%=      5-min Rain = 0
KEA1 250553Z 14015KT 22/19 A2999 RMK A01 T02170190  RH  084%=      5-min Rain = 0
KEA1 250554Z 14014KT 22/19 A2999 RMK A01 T02170190  RH  084%=      5-min Rain = 0
KEA1 250555Z 15017KT 22/19 A2999 RMK A01 T02170190  RH  084%=      5-min Rain = 0
KEA1 250556Z 14018G23KT 22/19 A2999 RMK A01 T02170189  RH  084%=      5-min Rain = 0
KEA1 250557Z 15019KT 22/19 A2999 RMK A01 T02170189  RH  084%=      5-min Rain = 0
KEA1 250558Z 15016KT 22/19 A2999 RMK A01 T02170189  RH  084%=      5-min Rain = 0
KEA1 250559Z 14017KT 22/19 A2999 RMK A01 T02170189  RH  084%=      5-min Rain = 0
KEA1 250600Z 15013KT 22/19 A2999 RMK A01 T02170189  RH  084%=      5-min Rain = 0
KEA1 250601Z 15018KT 22/19 A2999 RMK A01 T02160189  RH  084%=      5-min Rain = 0
KEA1 250602Z 15016KT 22/19 A2999 RMK A01 T02160189  RH  084%=      5-min Rain = 0
KEA1 250603Z 15016KT 22/19 A2999 RMK A01 T02160188  RH  084%=      5-min Rain = 0
KEA1 250604Z 15015KT 22/19 A2999 RMK A01 T02160188  RH  084%=      5-min Rain = 0
KEA1 250605Z 15014KT 22/19 A2999 RMK A01 T02160188  RH  084%=      5-min Rain = 0
KEA1 250606Z 14016KT 22/19 A2999 RMK A01 T02150188  RH  084%=      5-min Rain = 0
KEA1 250607Z 15016KT 22/19 A2999 RMK A01 T02150188  RH  084%=      5-min Rain = 0
KEA1 250608Z 15018KT 22/19 A2999 RMK A01 T02150187  RH  084%=      5-min Rain = 0
KEA1 250609Z 15015KT 22/19 A2999 RMK A01 T02150187  RH  084%=      5-min Rain = 0
KEA1 250610Z 15016KT 22/19 A2999 RMK A01 T02150188  RH  084%=      5-min Rain = 0
KEA1 250611Z 15015KT 22/19 A2999 RMK A01 T02150188  RH  084%=      5-min Rain = 0
KEA1 250612Z 15018KT 22/19 A2999 RMK A01 T02150187  RH  084%=      5-min Rain = 0
KEA1 250613Z 15016KT 22/19 A2999 RMK A01 T02150188  RH  085%=      5-min Rain = 0
KEA1 250614Z 15015G20KT 22/19 A2999 RMK A01 T02150188  RH  085%=      5-min Rain = 0
KEA1 250615Z 15013KT 21/19 A2999 RMK A01 T02140187  RH  085%=      5-min Rain = 0
KEA1 250616Z 15012G17KT 21/19 A2999 RMK A01 T02140187  RH  085%=      5-min Rain = 0
KEA1 250617Z 15016KT 21/19 A2999 RMK A01 T02130187  RH  085%=      5-min Rain = 0
KEA1 250618Z 14015KT 21/19 A2999 RMK A01 T02130187  RH  085%=      5-min Rain = 0
KEA1 250619Z 15014KT 21/19 A2999 RMK A01 T02130187  RH  085%=      5-min Rain = 0
KEA1 250620Z 15015G20KT 21/19 A2999 RMK A01 T02130187  RH  085%=      5-min Rain = 0
KEA1 250621Z 15013G18KT 21/19 A2999 RMK A01 T02120187  RH  085%=      5-min Rain = 0
KEA1 250622Z 16014KT 21/19 A2999 RMK A01 T02130187  RH  085%=      5-min Rain = 0
KEA1 250623Z 15015KT 21/19 A2999 RMK A01 T02130187  RH  085%=      5-min Rain = 0
KEA1 250624Z 16016KT 21/19 A2999 RMK A01 T02130187  RH  085%=      5-min Rain = 0
KEA1 250625Z 15014G19KT 21/19 A2999 RMK A01 T02130187  RH  085%=      5-min Rain = 0
KEA1 250626Z 15017KT 21/19 A2999 RMK A01 T02120186  RH  085%=      5-min Rain = 0
KEA1 250627Z 15014KT 21/19 A2999 RMK A01 T02130187  RH  085%=      5-min Rain = 0
KEA1 250628Z 15016KT 21/19 A2999 RMK A01 T02130187  RH  085%=      5-min Rain = 0
KEA1 250629Z 15016KT 21/19 A2999 RMK A01 T02130187  RH  085%=      5-min Rain = 0
KEA1 250630Z 15016KT 21/19 A2999 RMK A01 T02130187  RH  085%=      5-min Rain = 0
KEA1 250631Z 15014KT 21/19 A2999 RMK A01 T02130187  RH  085%=      5-min Rain = 0
KEA1 250632Z 15015KT 21/19 A2999 RMK A01 T02130187  RH  085%=      5-min Rain = 0
KEA1 250633Z 15016KT 21/19 A2999 RMK A01 T02120186  RH  085%=      5-min Rain = 0
KEA1 250634Z 15016KT 21/19 A2999 RMK A01 T02130186  RH  085%=      5-min Rain = 0
KEA1 250635Z 16014KT 21/19 A2999 RMK A01 T02120186  RH  085%=      5-min Rain = 0
KEA1 250636Z 15013KT 21/19 A2999 RMK A01 T02120186  RH  085%=      5-min Rain = 0
KEA1 250637Z 16013KT 21/19 A2999 RMK A01 T02120186  RH  085%=      5-min Rain = 0
KEA1 250638Z 16014KT 21/19 A2999 RMK A01 T02110186  RH  085%=      5-min Rain = 0
KEA1 250639Z 16014KT 21/19 A2999 RMK A01 T02110186  RH  086%=      5-min Rain = 0
KEA1 250640Z 16015KT 21/19 A2999 RMK A01 T02110186  RH  086%=      5-min Rain = 0
KEA1 250641Z 15013KT 21/19 A2999 RMK A01 T02110186  RH  086%=      5-min Rain = 0
KEA1 250642Z 15013KT 21/19 A2999 RMK A01 T02110186  RH  086%=      5-min Rain = 0
KEA1 250643Z 16013KT 21/19 A2999 RMK A01 T02110186  RH  086%=      5-min Rain = 0
KEA1 250644Z 16014KT 21/19 A2999 RMK A01 T02100186  RH  086%=      5-min Rain = 0
KEA1 250645Z 16011KT 21/19 A2999 RMK A01 T02100187  RH  086%=      5-min Rain = 0
KEA1 250646Z 16014KT 21/19 A2999 RMK A01 T02100186  RH  086%=      5-min Rain = 0
KEA1 250647Z 16013KT 21/19 A2999 RMK A01 T02100186  RH  086%=      5-min Rain = 0
KEA1 250648Z 16014KT 21/19 A2999 RMK A01 T02100186  RH  086%=      5-min Rain = 0
KEA1 250649Z 16012KT 21/19 A2999 RMK A01 T02100186  RH  086%=      5-min Rain = 0
KEA1 250650Z 16013KT 21/19 A2999 RMK A01 T02100187  RH  087%=      5-min Rain = 0
KEA1 250651Z 16012KT 21/19 A2999 RMK A01 T02090186  RH  087%=      5-min Rain = 0
KEA1 250652Z 16011KT 21/19 A2999 RMK A01 T02090186  RH  087%=      5-min Rain = 0
KEA1 250653Z 16014KT 21/19 A2999 RMK A01 T02090186  RH  087%=      5-min Rain = 0
KEA1 250654Z 16013KT 21/19 A2999 RMK A01 T02080186  RH  087%=      5-min Rain = 0
KEA1 250655Z 16012G17KT 21/19 A2999 RMK A01 T02090187  RH  087%=      5-min Rain = 0
KEA1 250656Z 16012KT 21/19 A2999 RMK A01 T02090187  RH  087%=      5-min Rain = 0
KEA1 250657Z 16012KT 21/19 A2999 RMK A01 T02080186  RH  087%=      5-min Rain = 0
KEA1 250658Z 16011KT 21/19 A2999 RMK A01 T02080186  RH  088%=      5-min Rain = 0
KEA1 250659Z 16011KT 21/19 A2999 RMK A01 T02070186  RH  088%=      5-min Rain = 0
KEA1 250700Z 16012KT 21/19 A2999 RMK A01 T02070186  RH  088%=      5-min Rain = 0
KEA1 250701Z 16012KT 21/19 A2999 RMK A01 T02060186  RH  088%=      5-min Rain = 0
KEA1 250702Z 16012KT 21/19 A2999 RMK A01 T02060186  RH  088%=      5-min Rain = 0
KEA1 250703Z 16012KT 21/19 A2999 RMK A01 T02060186  RH  088%=      5-min Rain = 0
KEA1 250704Z 16010KT 21/19 A2999 RMK A01 T02050186  RH  088%=      5-min Rain = 0
KEA1 250705Z 16011KT 21/19 A2999 RMK A01 T02050186  RH  088%=      5-min Rain = 0
KEA1 250706Z 16011G17KT 21/19 A2999 RMK A01 T02050185  RH  088%=      5-min Rain = 0
KEA1 250707Z 16012KT 21/19 A2999 RMK A01 T02050185  RH  088%=      5-min Rain = 0
KEA1 250708Z 16011KT 21/19 A2999 RMK A01 T02050185  RH  088%=      5-min Rain = 0
KEA1 250709Z 16013KT 21/19 A2999 RMK A01 T02050185  RH  088%=      5-min Rain = 0
KEA1 250710Z 16013KT 21/19 A2999 RMK A01 T02050185  RH  088%=      5-min Rain = 0
KEA1 250711Z 16012KT 21/18 A2999 RMK A01 T02050184  RH  088%=      5-min Rain = 0
KEA1 250712Z 16010KT 20/18 A2999 RMK A01 T02040184  RH  088%=      5-min Rain = 0
KEA1 250713Z 16012KT 20/18 A2999 RMK A01 T02040183  RH  088%=      5-min Rain = 0
KEA1 250714Z 17011KT 20/18 A2999 RMK A01 T02040184  RH  088%=      5-min Rain = 0
KEA1 250715Z 16011KT 20/18 A2999 RMK A01 T02040184  RH  088%=      5-min Rain = 0
KEA1 250716Z 16012KT 20/18 A2999 RMK A01 T02040183  RH  088%=      5-min Rain = 0
KEA1 250717Z 17011KT 20/18 A2999 RMK A01 T02030183  RH  088%=      5-min Rain = 0
KEA1 250718Z 16012KT 20/18 A2999 RMK A01 T02030183  RH  088%=      5-min Rain = 0
KEA1 250719Z 16010KT 20/18 A2999 RMK A01 T02030182  RH  088%=      5-min Rain = 0
KEA1 250720Z 16011KT 20/18 A2999 RMK A01 T02030181  RH  087%=      5-min Rain = 0
KEA1 250721Z 16013KT 20/18 A2999 RMK A01 T02030180  RH  087%=      5-min Rain = 0
KEA1 250722Z 16012KT 20/18 A2999 RMK A01 T02030179  RH  086%=      5-min Rain = 0
KEA1 250723Z 16013KT 20/18 A2999 RMK A01 T02030178  RH  085%=      5-min Rain = 0
KEA1 250724Z 16014KT 20/18 A2999 RMK A01 T02030177  RH  085%=      5-min Rain = 0
KEA1 250725Z 16011KT 20/18 A2999 RMK A01 T02040175  RH  084%=      5-min Rain = 0
KEA1 250726Z 16013KT 20/17 A2999 RMK A01 T02030174  RH  083%=      5-min Rain = 0
KEA1 250727Z 16012KT 20/17 A2999 RMK A01 T02030173  RH  083%=      5-min Rain = 0
KEA1 250728Z 16013KT 20/17 A2999 RMK A01 T02030171  RH  082%=      5-min Rain = 0
KEA1 250729Z 16012KT 20/17 A2999 RMK A01 T02030170  RH  081%=      5-min Rain = 0
KEA1 250730Z 16013KT 20/17 A2999 RMK A01 T02030169  RH  081%=      5-min Rain = 0
KEA1 250731Z 16010KT 20/17 A2999 RMK A01 T02030168  RH  080%=      5-min Rain = 0
KEA1 250732Z 16011KT 20/17 A2999 RMK A01 T02030167  RH  080%=      5-min Rain = 0
KEA1 250733Z 17012KT 20/17 A2999 RMK A01 T02020166  RH  080%=      5-min Rain = 0
KEA1 250734Z 17011KT 20/17 A2999 RMK A01 T02020166  RH  079%=      5-min Rain = 0
KEA1 250735Z 17010KT 20/17 A2999 RMK A01 T02020165  RH  079%=      5-min Rain = 0
KEA1 250736Z 17012KT 20/16 A2999 RMK A01 T02010164  RH  079%=      5-min Rain = 0
KEA1 250737Z 17009KT 20/16 A2999 RMK A01 T02010164  RH  079%=      5-min Rain = 0
KEA1 250738Z 17009KT 20/16 A2999 RMK A01 T02000164  RH  079%=      5-min Rain = 0
KEA1 250739Z 16010KT 20/16 A2999 RMK A01 T02000164  RH  080%=      5-min Rain = 0
KEA1 250740Z 16009KT 20/16 A2999 RMK A01 T01990163  RH  080%=      5-min Rain = 0
KEA1 250741Z 16010KT 20/16 A2999 RMK A01 T01990163  RH  080%=      5-min Rain = 0
KEA1 250742Z 17009KT 20/16 A2999 RMK A01 T01980162  RH  080%=      5-min Rain = 0
KEA1 250743Z 16011KT 20/16 A2999 RMK A01 T01980162  RH  080%=      5-min Rain = 0
KEA1 250744Z 17009KT 20/16 A30 RMK A01 T01970161  RH  080%=      5-min Rain = 0
KEA1 250745Z 17010KT 20/16 A30 RMK A01 T01970161  RH  080%=      5-min Rain = 0
KEA1 250746Z 17010KT 20/16 A2999 RMK A01 T01960161  RH  080%=      5-min Rain = 0
KEA1 250747Z 17010KT 20/16 A2999 RMK A01 T01960161  RH  080%=      5-min Rain = 0
KEA1 250748Z 17010KT 20/16 A2999 RMK A01 T01950160  RH  080%=      5-min Rain = 0
KEA1 250749Z 17010KT 20/16 A2999 RMK A01 T01950159  RH  080%=      5-min Rain = 0
KEA1 250750Z 17011KT 20/16 A2999 RMK A01 T01950159  RH  079%=      5-min Rain = 0
KEA1 250751Z 17011KT 20/16 A2999 RMK A01 T01950158  RH  079%=      5-min Rain = 0
KEA1 250752Z 17011KT 20/16 A2999 RMK A01 T01950158  RH  079%=      5-min Rain = 0
KEA1 250753Z 17011KT 20/16 A2999 RMK A01 T01950157  RH  079%=      5-min Rain = 0
KEA1 250754Z 17012KT 20/16 A2999 RMK A01 T01950156  RH  078%=      5-min Rain = 0
KEA1 250755Z 17010KT 20/16 A2999 RMK A01 T01950155  RH  078%=      5-min Rain = 0
KEA1 250756Z 17012KT 20/16 A2999 RMK A01 T01950155  RH  078%=      5-min Rain = 0
KEA1 250757Z 17011KT 19/15 A2999 RMK A01 T01940153  RH  077%=      5-min Rain = 0
KEA1 250758Z 17011KT 19/15 A2999 RMK A01 T01940153  RH  077%=      5-min Rain = 0
KEA1 250759Z 17011KT 19/15 A2999 RMK A01 T01940152  RH  077%=      5-min Rain = 0
KEA1 250800Z 17011KT 19/15 A2999 RMK A01 T01930152  RH  077%=      5-min Rain = 0
KEA1 250801Z 17011KT 19/15 A2999 RMK A01 T01930151  RH  076%=      5-min Rain = 0
KEA1 250802Z 17011KT 19/15 A2999 RMK A01 T01920149  RH  076%=      5-min Rain = 0
KEA1 250803Z 17010KT 19/15 A2999 RMK A01 T01920149  RH  076%=      5-min Rain = 0
KEA1 250804Z 17010KT 19/15 A2999 RMK A01 T01920148  RH  076%=      5-min Rain = 0
KEA1 250805Z 17011KT 19/15 A2999 RMK A01 T01910147  RH  076%=      5-min Rain = 0
KEA1 250806Z 17010KT 19/15 A2999 RMK A01 T01910147  RH  075%=      5-min Rain = 0
KEA1 250807Z 17011KT 19/15 A2999 RMK A01 T01910146  RH  075%=      5-min Rain = 0
KEA1 250808Z 17011KT 19/15 A2999 RMK A01 T01910145  RH  075%=      5-min Rain = 0
KEA1 250809Z 17010KT 19/15 A2999 RMK A01 T01910145  RH  074%=      5-min Rain = 0
KEA1 250810Z 17010KT 19/15 A2999 RMK A01 T01910145  RH  074%=      5-min Rain = 0
KEA1 250811Z 17009KT 19/14 A2999 RMK A01 T01900144  RH  075%=      5-min Rain = 0
KEA1 250812Z 17010KT 19/14 A2999 RMK A01 T01900144  RH  075%=      5-min Rain = 0
KEA1 250813Z 17009KT 19/14 A2999 RMK A01 T01890143  RH  075%=      5-min Rain = 0
KEA1 250814Z 17009KT 19/14 A2999 RMK A01 T01880143  RH  075%=      5-min Rain = 0
KEA1 250815Z 17008KT 19/14 A2999 RMK A01 T01870142  RH  075%=      5-min Rain = 0
KEA1 250816Z 17009KT 19/14 A2999 RMK A01 T01870142  RH  075%=      5-min Rain = 0
KEA1 250817Z 17009KT 19/14 A2999 RMK A01 T01870142  RH  075%=      5-min Rain = 0
KEA1 250818Z 17008KT 19/14 A2999 RMK A01 T01860141  RH  075%=      5-min Rain = 0
KEA1 250819Z 17008KT 19/14 A2999 RMK A01 T01860141  RH  075%=      5-min Rain = 0
KEA1 250820Z 17008KT 19/14 A30 RMK A01 T01850141  RH  075%=      5-min Rain = 0
KEA1 250821Z 17008KT 18/14 A30 RMK A01 T01840140  RH  075%=      5-min Rain = 0
KEA1 250822Z 17008KT 18/14 A30 RMK A01 T01840140  RH  076%=      5-min Rain = 0
KEA1 250823Z 17008KT 18/14 A2999 RMK A01 T01830140  RH  076%=      5-min Rain = 0
KEA1 250824Z 17008KT 18/14 A2999 RMK A01 T01830140  RH  076%=      5-min Rain = 0
KEA1 250825Z 17008KT 18/14 A2999 RMK A01 T01830140  RH  076%=      5-min Rain = 0
KEA1 250826Z 17008KT 18/14 A30 RMK A01 T01820139  RH  076%=      5-min Rain = 0
KEA1 250827Z 17008KT 18/14 A30 RMK A01 T01820139  RH  076%=      5-min Rain = 0
KEA1 250828Z 17008KT 18/14 A30 RMK A01 T01810139  RH  076%=      5-min Rain = 0
KEA1 250829Z 17008KT 18/14 A30 RMK A01 T01810139  RH  076%=      5-min Rain = 0
KEA1 250830Z 17008KT 18/14 A30 RMK A01 T01800138  RH  076%=      5-min Rain = 0
KEA1 250831Z 17008KT 18/14 A30 RMK A01 T01800138  RH  076%=      5-min Rain = 0
KEA1 250832Z 17008KT 18/14 A2999 RMK A01 T01790138  RH  077%=      5-min Rain = 0
KEA1 250833Z 17009KT 18/14 A2999 RMK A01 T01790138  RH  077%=      5-min Rain = 0
KEA1 250834Z 18008KT 18/14 A2999 RMK A01 T01790137  RH  077%=      5-min Rain = 0
KEA1 250835Z 17008KT 18/14 A2999 RMK A01 T01790138  RH  077%=      5-min Rain = 0
KEA1 250836Z 17009KT 18/14 A2999 RMK A01 T01780137  RH  077%=      5-min Rain = 0
KEA1 250837Z 17008KT 18/14 A2999 RMK A01 T01780137  RH  077%=      5-min Rain = 0
KEA1 250838Z 17008KT 18/14 A2999 RMK A01 T01770137  RH  077%=      5-min Rain = 0
KEA1 250839Z 17008KT 18/14 A2999 RMK A01 T01760136  RH  077%=      5-min Rain = 0
KEA1 250840Z 17008KT 18/14 A2999 RMK A01 T01760136  RH  078%=      5-min Rain = 0
KEA1 250841Z 17008KT 18/14 A30 RMK A01 T01750136  RH  078%=      5-min Rain = 0
KEA1 250842Z 16007KT 18/14 A30 RMK A01 T01750136  RH  078%=      5-min Rain = 0
KEA1 250843Z 16007KT 18/14 A30 RMK A01 T01750136  RH  078%=      5-min Rain = 0
KEA1 250844Z 16008KT 17/14 A30 RMK A01 T01740136  RH  078%=      5-min Rain = 0
KEA1 250845Z 17008KT 17/14 A2999 RMK A01 T01740135  RH  078%=      5-min Rain = 0
KEA1 250846Z 17007KT 17/14 A30 RMK A01 T01740135  RH  078%=      5-min Rain = 0
KEA1 250847Z 17007KT 17/14 A30 RMK A01 T01740135  RH  078%=      5-min Rain = 0
KEA1 250848Z 17007KT 17/14 A30 RMK A01 T01730135  RH  078%=      5-min Rain = 0
KEA1 250849Z 17007KT 17/14 A30 RMK A01 T01730135  RH  078%=      5-min Rain = 0
KEA1 250850Z 17007KT 17/14 A30 RMK A01 T01720135  RH  079%=      5-min Rain = 0
KEA1 250851Z 17007KT 17/14 A30 RMK A01 T01710135  RH  079%=      5-min Rain = 0
KEA1 250852Z 17007KT 17/13 A30 RMK A01 T01700134  RH  079%=      5-min Rain = 0
KEA1 250853Z 17007KT 17/13 A30 RMK A01 T01700134  RH  080%=      5-min Rain = 0
KEA1 250854Z 17006KT 17/13 A30 RMK A01 T01690134  RH  080%=      5-min Rain = 0
KEA1 250855Z 17006KT 17/13 A30 RMK A01 T01690134  RH  080%=      5-min Rain = 0
KEA1 250856Z 17006KT 17/13 A30 RMK A01 T01680134  RH  081%=      5-min Rain = 0
KEA1 250857Z 17006KT 17/13 A30 RMK A01 T01680134  RH  081%=      5-min Rain = 0
KEA1 250858Z 17006KT 17/13 A30 RMK A01 T01670134  RH  081%=      5-min Rain = 0
KEA1 250859Z 17005KT 17/13 A30 RMK A01 T01660134  RH  081%=      5-min Rain = 0
KEA1 250900Z 18005KT 17/13 A30 RMK A01 T01660134  RH  081%=      5-min Rain = 0
KEA1 250901Z 18005KT 17/13 A30 RMK A01 T01650134  RH  082%=      5-min Rain = 0
KEA1 250902Z 18004KT 17/13 A30 RMK A01 T01650134  RH  082%=      5-min Rain = 0
KEA1 250903Z 18004KT 16/13 A30 RMK A01 T01640133  RH  082%=      5-min Rain = 0
KEA1 250904Z 19004KT 16/13 A30 RMK A01 T01630133  RH  082%=      5-min Rain = 0
KEA1 250905Z 19003KT 16/13 A30 RMK A01 T01630133  RH  083%=      5-min Rain = 0
KEA1 250906Z 19003KT 16/13 A30 RMK A01 T01620133  RH  083%=      5-min Rain = 0
KEA1 250907Z 19003KT 16/13 A30 RMK A01 T01620134  RH  083%=      5-min Rain = 0
KEA1 250908Z 19002KT 16/13 A30 RMK A01 T01620134  RH  083%=      5-min Rain = 0
KEA1 250909Z 19002KT 16/13 A30 RMK A01 T01620134  RH  083%=      5-min Rain = 0
KEA1 250910Z 19002KT 16/13 A30 RMK A01 T01620134  RH  083%=      5-min Rain = 0
KEA1 250911Z 18002KT 16/13 A30 RMK A01 T01620134  RH  083%=      5-min Rain = 0
KEA1 250912Z 19002KT 16/13 A30 RMK A01 T01630134  RH  083%=      5-min Rain = 0
KEA1 250913Z 19002KT 16/14 A30 RMK A01 T01630135  RH  083%=      5-min Rain = 0
KEA1 250914Z 18002KT 16/14 A30 RMK A01 T01630135  RH  084%=      5-min Rain = 0
KEA1 250915Z 17002KT 16/14 A30 RMK A01 T01630136  RH  084%=      5-min Rain = 0
KEA1 250916Z 17001KT 16/14 A30 RMK A01 T01640136  RH  083%=      5-min Rain = 0
KEA1 250917Z 17001KT 16/14 A30 RMK A01 T01640135  RH  083%=      5-min Rain = 0
KEA1 250918Z 15001KT 16/14 A30 RMK A01 T01640135  RH  083%=      5-min Rain = 0
KEA1 250919Z 15001KT 16/13 A30 RMK A01 T01630133  RH  083%=      5-min Rain = 0
KEA1 250920Z 16001KT 16/13 A30 RMK A01 T01620134  RH  083%=      5-min Rain = 0
KEA1 250921Z 17001KT 16/14 A30 RMK A01 T01620135  RH  084%=      5-min Rain = 0
KEA1 250922Z 17002KT 16/14 A30 RMK A01 T01620135  RH  084%=      5-min Rain = 0
KEA1 250923Z 17002KT 16/14 A30 RMK A01 T01620135  RH  084%=      5-min Rain = 0
KEA1 250924Z 17001KT 16/14 A30 RMK A01 T01620135  RH  084%=      5-min Rain = 0
KEA1 250925Z 15002KT 16/14 A30 RMK A01 T01620135  RH  084%=      5-min Rain = 0
KEA1 250926Z 15001KT 16/14 A30 RMK A01 T01620135  RH  084%=      5-min Rain = 0
KEA1 250927Z 14001KT 16/13 A30 RMK A01 T01630134  RH  083%=      5-min Rain = 0
KEA1 250928Z 13001KT 16/13 A30 RMK A01 T01630134  RH  083%=      5-min Rain = 0
KEA1 250929Z 11001KT 16/13 A30 RMK A01 T01620133  RH  083%=      5-min Rain = 0
KEA1 250930Z 12001KT 16/13 A30 RMK A01 T01610133  RH  083%=      5-min Rain = 0
KEA1 250931Z 11001KT 16/13 A30 RMK A01 T01600133  RH  084%=      5-min Rain = 0
KEA1 250932Z 14001KT 16/13 A30 RMK A01 T01600132  RH  084%=      5-min Rain = 0
KEA1 250933Z 17001KT 16/13 A30 RMK A01 T01590134  RH  085%=      5-min Rain = 0
KEA1 250934Z 17002KT 16/14 A30 RMK A01 T01600135  RH  085%=      5-min Rain = 0
KEA1 250935Z 19002KT 16/14 A30 RMK A01 T01620136  RH  085%=      5-min Rain = 0
KEA1 250936Z 16002KT 16/14 A30 RMK A01 T01630136  RH  084%=      5-min Rain = 0
KEA1 250937Z 12002KT 17/13 A30 RMK A01 T01650134  RH  082%=      5-min Rain = 0
KEA1 250938Z 08003KT 16/13 A30 RMK A01 T01630130  RH  081%=      5-min Rain = 0
KEA1 250939Z 09003KT 16/13 A30 RMK A01 T01570126  RH  082%=      5-min Rain = 0
KEA1 250940Z 10002KT 15/13 A30 RMK A01 T01530127  RH  084%=      5-min Rain = 0
KEA1 250941Z 11002KT 15/13 A30 RMK A01 T01520128  RH  085%=      5-min Rain = 0
KEA1 250942Z 11002KT 15/13 A30 RMK A01 T01510127  RH  086%=      5-min Rain = 0
KEA1 250943Z 10002KT 15/13 A30 RMK A01 T01500126  RH  086%=      5-min Rain = 0
KEA1 250944Z 08003KT 15/13 A30 RMK A01 T01490126  RH  086%=      5-min Rain = 0
KEA1 250945Z 08005KT 15/12 A30 RMK A01 T01470124  RH  086%=      5-min Rain = 0
KEA1 250946Z 08004KT 15/12 A30 RMK A01 T01450123  RH  087%=      5-min Rain = 0
KEA1 250947Z 09003KT 14/12 A3001 RMK A01 T01430123  RH  088%=      5-min Rain = 0
KEA1 250948Z 09002KT 14/12 A3001 RMK A01 T01430124  RH  088%=      5-min Rain = 0
KEA1 250949Z 08001KT 14/13 A3001 RMK A01 T01430125  RH  089%=      5-min Rain = 0
KEA1 250950Z 08002KT 14/13 A3001 RMK A01 T01440125  RH  089%=      5-min Rain = 0
KEA1 250951Z 08003KT 14/12 A3001 RMK A01 T01440124  RH  088%=      5-min Rain = 0
KEA1 250952Z 08004KT 14/12 A3001 RMK A01 T01430124  RH  088%=      5-min Rain = 0
KEA1 250953Z 07004KT 14/13 A3001 RMK A01 T01430126  RH  089%=      5-min Rain = 0
KEA1 250954Z 06003KT 14/13 A3001 RMK A01 T01440127  RH  090%=      5-min Rain = 0
KEA1 250955Z 07002KT 15/13 A3001 RMK A01 T01470130  RH  090%=      5-min Rain = 0
KEA1 250956Z 11001KT 15/13 A3001 RMK A01 T01500131  RH  088%=      5-min Rain = 0
KEA1 250957Z 14001KT 15/13 A3001 RMK A01 T01530131  RH  087%=      5-min Rain = 0
KEA1 250958Z 15002KT 16/13 A3001 RMK A01 T01550131  RH  086%=      5-min Rain = 0
KEA1 250959Z 17002KT 16/13 A3001 RMK A01 T01560131  RH  085%=      5-min Rain = 0
KEA1 251000Z 17002KT 16/13 A3001 RMK A01 T01580133  RH  085%=      5-min Rain = 0
KEA1 251001Z 17003KT 16/13 A3001 RMK A01 T01610134  RH  084%=      5-min Rain = 0
KEA1 251002Z 18003KT 16/13 A3001 RMK A01 T01630133  RH  083%=      5-min Rain = 0
KEA1 251003Z 16002KT 17/13 A3001 RMK A01 T01650133  RH  082%=      5-min Rain = 0
KEA1 251004Z 17002KT 17/13 A3001 RMK A01 T01660133  RH  081%=      5-min Rain = 0
KEA1 251005Z 17002KT 17/13 A3001 RMK A01 T01660132  RH  081%=      5-min Rain = 0
KEA1 251006Z 15002KT 17/13 A3001 RMK A01 T01660132  RH  081%=      5-min Rain = 0
KEA1 251007Z 16002KT 17/13 A3001 RMK A01 T01650132  RH  080%=      5-min Rain = 0
KEA1 251008Z 16003KT 17/13 A3001 RMK A01 T01650132  RH  081%=      5-min Rain = 0
KEA1 251009Z 17003KT 16/13 A3001 RMK A01 T01640132  RH  081%=      5-min Rain = 0
KEA1 251010Z 16003KT 17/13 A3001 RMK A01 T01650132  RH  081%=      5-min Rain = 0
KEA1 251011Z 16004KT 17/13 A3001 RMK A01 T01660132  RH  080%=      5-min Rain = 0
KEA1 251012Z 17004KT 17/13 A3001 RMK A01 T01660132  RH  080%=      5-min Rain = 0
KEA1 251013Z 16004KT 17/13 A3001 RMK A01 T01660132  RH  080%=      5-min Rain = 0
KEA1 251014Z 16005KT 17/13 A3001 RMK A01 T01680132  RH  080%=      5-min Rain = 0
KEA1 251015Z 15005KT 17/13 A3002 RMK A01 T01680132  RH  079%=      5-min Rain = 0
KEA1 251016Z 15005KT 17/13 A3002 RMK A01 T01660130  RH  079%=      5-min Rain = 0
KEA1 251017Z 15006KT 16/13 A3002 RMK A01 T01630128  RH  080%=      5-min Rain = 0
KEA1 251018Z 15005KT 16/13 A3002 RMK A01 T01590127  RH  081%=      5-min Rain = 0
KEA1 251019Z 16006KT 16/13 A3002 RMK A01 T01570127  RH  082%=      5-min Rain = 0
KEA1 251020Z 17005KT 16/13 A3002 RMK A01 T01560127  RH  083%=      5-min Rain = 0
KEA1 251021Z 17005KT 16/13 A3001 RMK A01 T01550126  RH  083%=      5-min Rain = 0
KEA1 251022Z 17006KT 16/13 A3002 RMK A01 T01550126  RH  083%=      5-min Rain = 0
KEA1 251023Z 18007KT 15/13 A3002 RMK A01 T01540126  RH  083%=      5-min Rain = 0
KEA1 251024Z 18007KT 15/13 A3002 RMK A01 T01540126  RH  083%=      5-min Rain = 0
KEA1 251025Z 18006KT 15/13 A3002 RMK A01 T01530125  RH  083%=      5-min Rain = 0
KEA1 251026Z 18007KT 15/13 A3002 RMK A01 T01520125  RH  084%=      5-min Rain = 0
KEA1 251027Z 18007KT 15/13 A3002 RMK A01 T01510125  RH  084%=      5-min Rain = 0
KEA1 251028Z 18007KT 15/12 A3002 RMK A01 T01500124  RH  085%=      5-min Rain = 0
KEA1 251029Z 18006KT 15/13 A3002 RMK A01 T01490125  RH  085%=      5-min Rain = 0
KEA1 251030Z 18006KT 15/13 A3002 RMK A01 T01480125  RH  086%=      5-min Rain = 0
KEA1 251031Z 18006KT 15/12 A3002 RMK A01 T01480124  RH  086%=      5-min Rain = 0
KEA1 251032Z 18006KT 15/13 A3002 RMK A01 T01470125  RH  087%=      5-min Rain = 0
KEA1 251033Z 18006KT 15/13 A3002 RMK A01 T01470125  RH  087%=      5-min Rain = 0
KEA1 251034Z 18005KT 15/13 A3002 RMK A01 T01470125  RH  087%=      5-min Rain = 0
KEA1 251035Z 19006KT 15/13 A3002 RMK A01 T01480126  RH  087%=      5-min Rain = 0
KEA1 251036Z 19005KT 15/13 A3002 RMK A01 T01480126  RH  087%=      5-min Rain = 0
KEA1 251037Z 19005KT 15/13 A3002 RMK A01 T01480126  RH  086%=      5-min Rain = 0
KEA1 251038Z 19006KT 15/13 A3002 RMK A01 T01490126  RH  086%=      5-min Rain = 0
KEA1 251039Z 18006KT 15/13 A3002 RMK A01 T01490126  RH  086%=      5-min Rain = 0
KEA1 251040Z 19006KT 15/13 A3002 RMK A01 T01490126  RH  086%=      5-min Rain = 0
KEA1 251041Z 19006KT 15/13 A3003 RMK A01 T01490126  RH  086%=      5-min Rain = 0
KEA1 251042Z 19006KT 15/13 A3003 RMK A01 T01490126  RH  086%=      5-min Rain = 0
KEA1 251043Z 20006KT 15/13 A3003 RMK A01 T01490126  RH  086%=      5-min Rain = 0
KEA1 251044Z 19006KT 15/13 A3003 RMK A01 T01500127  RH  086%=      5-min Rain = 0
KEA1 251045Z 20006KT 15/13 A3003 RMK A01 T01500127  RH  086%=      5-min Rain = 0
KEA1 251046Z 20006KT 15/13 A3003 RMK A01 T01510127  RH  086%=      5-min Rain = 0
KEA1 251047Z 20006KT 15/13 A3003 RMK A01 T01520128  RH  086%=      5-min Rain = 0
KEA1 251048Z 20006KT 15/13 A3003 RMK A01 T01510128  RH  086%=      5-min Rain = 0
KEA1 251049Z 20007KT 15/13 A3003 RMK A01 T01520128  RH  086%=      5-min Rain = 0
KEA1 251050Z 20007KT 15/13 A3003 RMK A01 T01520129  RH  086%=      5-min Rain = 0
KEA1 251051Z 21007KT 15/13 A3003 RMK A01 T01540129  RH  085%=      5-min Rain = 0
KEA1 251052Z 21007KT 15/13 A3003 RMK A01 T01540129  RH  085%=      5-min Rain = 0
KEA1 251053Z 20007KT 15/13 A3003 RMK A01 T01540130  RH  085%=      5-min Rain = 0
KEA1 251054Z 21007KT 16/13 A3003 RMK A01 T01550130  RH  085%=      5-min Rain = 0
KEA1 251055Z 21008KT 16/13 A3003 RMK A01 T01560131  RH  085%=      5-min Rain = 0
KEA1 251056Z 20008KT 16/13 A3003 RMK A01 T01570131  RH  085%=      5-min Rain = 0
KEA1 251057Z 21008KT 16/13 A3003 RMK A01 T01590132  RH  084%=      5-min Rain = 0
KEA1 251058Z 21008KT 16/13 A3003 RMK A01 T01600132  RH  084%=      5-min Rain = 0
KEA1 251059Z 20009KT 16/13 A3003 RMK A01 T01610133  RH  083%=      5-min Rain = 0
KEA1 251100Z 20009KT 16/13 A3003 RMK A01 T01620132  RH  083%=      5-min Rain = 0
KEA1 251101Z 20009KT 16/13 A3004 RMK A01 T01620132  RH  083%=      5-min Rain = 0
KEA1 251102Z 20008KT 16/13 A3004 RMK A01 T01620132  RH  083%=      5-min Rain = 0
KEA1 251103Z 20008KT 16/13 A3004 RMK A01 T01620133  RH  083%=      5-min Rain = 0
KEA1 251104Z 21008KT 16/13 A3004 RMK A01 T01610132  RH  083%=      5-min Rain = 0
KEA1 251105Z 21008KT 16/13 A3004 RMK A01 T01600132  RH  084%=      5-min Rain = 0
KEA1 251106Z 20008KT 16/13 A3004 RMK A01 T01600133  RH  084%=      5-min Rain = 0
KEA1 251107Z 21007KT 16/13 A3004 RMK A01 T01600132  RH  084%=      5-min Rain = 0
KEA1 251108Z 21007KT 16/13 A3004 RMK A01 T01600132  RH  084%=      5-min Rain = 0
KEA1 251109Z 21009KT 16/13 A3004 RMK A01 T01600132  RH  083%=      5-min Rain = 0
KEA1 251110Z 24005KT 16/13 A3004 RMK A01 T01620133  RH  083%=      5-min Rain = 0
KEA1 251111Z 25005KT 16/13 A3004 RMK A01 T01630134  RH  083%=      5-min Rain = 0
KEA1 251112Z 25005KT 16/13 A3004 RMK A01 T01610133  RH  083%=      5-min Rain = 0
KEA1 251113Z 24006KT 16/13 A3004 RMK A01 T01590132  RH  084%=      5-min Rain = 0
KEA1 251114Z 24005KT 16/13 A3004 RMK A01 T01580132  RH  084%=      5-min Rain = 0
KEA1 251115Z 25006KT 16/13 A3004 RMK A01 T01570131  RH  084%=      5-min Rain = 0
KEA1 251116Z 25006KT 16/13 A3004 RMK A01 T01560130  RH  084%=      5-min Rain = 0
KEA1 251117Z 25006KT 16/13 A3004 RMK A01 T01560130  RH  084%=      5-min Rain = 0
KEA1 251118Z 25006KT 16/13 A3004 RMK A01 T01550129  RH  085%=      5-min Rain = 0
KEA1 251119Z 25006KT 16/13 A3004 RMK A01 T01550129  RH  085%=      5-min Rain = 0
KEA1 251120Z 26006KT 15/13 A3004 RMK A01 T01540129  RH  085%=      5-min Rain = 0
KEA1 251121Z 26007KT 15/13 A3004 RMK A01 T01540129  RH  085%=      5-min Rain = 0
KEA1 251122Z 26006KT 15/13 A3004 RMK A01 T01530129  RH  085%=      5-min Rain = 0
KEA1 251123Z 26007KT 15/13 A3004 RMK A01 T01530129  RH  086%=      5-min Rain = 0
KEA1 251124Z 25007KT 15/13 A3004 RMK A01 T01510128  RH  086%=      5-min Rain = 0
KEA1 251125Z 25006KT 15/13 A3004 RMK A01 T01510127  RH  086%=      5-min Rain = 0
KEA1 251126Z 24007KT 15/13 A3004 RMK A01 T01500128  RH  086%=      5-min Rain = 0
KEA1 251127Z 24007KT 15/13 A3004 RMK A01 T01500128  RH  087%=      5-min Rain = 0
KEA1 251128Z 24007KT 15/13 A3004 RMK A01 T01500129  RH  087%=      5-min Rain = 0
KEA1 251129Z 24007KT 15/13 A3004 RMK A01 T01520130  RH  087%=      5-min Rain = 0
KEA1 251130Z 23007KT 15/13 A3004 RMK A01 T01540131  RH  086%=      5-min Rain = 0
KEA1 251131Z 22007KT 16/13 A3004 RMK A01 T01560133  RH  086%=      5-min Rain = 0
KEA1 251132Z 23008KT 16/14 A3004 RMK A01 T01590135  RH  086%=      5-min Rain = 0
KEA1 251133Z 23006KT 16/14 A3004 RMK A01 T01620136  RH  085%=      5-min Rain = 0
KEA1 251134Z 25007KT 16/14 A3004 RMK A01 T01620135  RH  084%=      5-min Rain = 0
KEA1 251135Z 25008KT 16/13 A3004 RMK A01 T01620133  RH  083%=      5-min Rain = 0
KEA1 251136Z 25009KT 16/13 A3004 RMK A01 T01620133  RH  083%=      5-min Rain = 0
KEA1 251137Z 25009KT 16/13 A3004 RMK A01 T01640133  RH  082%=      5-min Rain = 0
KEA1 251138Z 27008KT 16/13 A3004 RMK A01 T01640132  RH  081%=      5-min Rain = 0
KEA1 251139Z 28007KT 16/13 A3004 RMK A01 T01610129  RH  081%=      5-min Rain = 0
KEA1 251140Z 29007KT 16/13 A3004 RMK A01 T01560127  RH  083%=      5-min Rain = 0
KEA1 251141Z 28007KT 15/13 A3005 RMK A01 T01520126  RH  084%=      5-min Rain = 0
KEA1 251142Z 28007KT 15/13 A3005 RMK A01 T01490126  RH  086%=      5-min Rain = 0
KEA1 251143Z 28007KT 15/13 A3005 RMK A01 T01480126  RH  087%=      5-min Rain = 0
KEA1 251144Z 28006KT 15/13 A3005 RMK A01 T01470127  RH  087%=      5-min Rain = 0
KEA1 251145Z 27006KT 15/13 A3005 RMK A01 T01470127  RH  088%=      5-min Rain = 0
KEA1 251146Z 27006KT 15/13 A3005 RMK A01 T01460127  RH  088%=      5-min Rain = 0
KEA1 251147Z 26006KT 15/13 A3005 RMK A01 T01460127  RH  088%=      5-min Rain = 0
KEA1 251148Z 26006KT 15/13 A3005 RMK A01 T01470127  RH  088%=      5-min Rain = 0
KEA1 251149Z 26006KT 15/13 A3005 RMK A01 T01480127  RH  087%=      5-min Rain = 0
KEA1 251150Z 26006KT 15/13 A3005 RMK A01 T01480126  RH  087%=      5-min Rain = 0
KEA1 251151Z 25006KT 15/13 A3004 RMK A01 T01490126  RH  087%=      5-min Rain = 0
KEA1 251152Z 25006KT 15/13 A3005 RMK A01 T01490127  RH  086%=      5-min Rain = 0
KEA1 251153Z 26006KT 15/13 A3005 RMK A01 T01490126  RH  086%=      5-min Rain = 0
KEA1 251154Z 26007KT 15/13 A3005 RMK A01 T01490127  RH  086%=      5-min Rain = 0
KEA1 251155Z 26006KT 15/13 A3005 RMK A01 T01500127  RH  086%=      5-min Rain = 0
KEA1 251156Z 26007KT 15/13 A3005 RMK A01 T01490127  RH  086%=      5-min Rain = 0
KEA1 251157Z 27007KT 15/13 A3005 RMK A01 T01490127  RH  086%=      5-min Rain = 0
KEA1 251158Z 28006KT 15/13 A3005 RMK A01 T01490127  RH  086%=      5-min Rain = 0
KEA1 251159Z 27006KT 15/13 A3005 RMK A01 T01490127  RH  086%=      5-min Rain = 0
KEA1 251200Z 27007KT 15/13 A3005 RMK A01 T01480126  RH  086%=      5-min Rain = 0
KEA1 251201Z 27006KT 15/13 A3005 RMK A01 T01470125  RH  086%=      5-min Rain = 0
KEA1 251202Z 27006KT 15/13 A3005 RMK A01 T01470125  RH  087%=      5-min Rain = 0
KEA1 251203Z 27006KT 15/13 A3005 RMK A01 T01470125  RH  087%=      5-min Rain = 0
KEA1 251204Z 28005KT 15/13 A3005 RMK A01 T01460125  RH  087%=      5-min Rain = 0
KEA1 251205Z 27006KT 15/13 A3005 RMK A01 T01460125  RH  087%=      5-min Rain = 0
KEA1 251206Z 27006KT 15/13 A3005 RMK A01 T01460125  RH  087%=      5-min Rain = 0
KEA1 251207Z 27005KT 15/13 A3005 RMK A01 T01450125  RH  087%=      5-min Rain = 0
KEA1 251208Z 27005KT 15/13 A3005 RMK A01 T01450125  RH  088%=      5-min Rain = 0
KEA1 251209Z 27005KT 15/13 A3005 RMK A01 T01450125  RH  088%=      5-min Rain = 0
KEA1 251210Z 27005KT 15/13 A3005 RMK A01 T01450125  RH  088%=      5-min Rain = 0
KEA1 251211Z 27005KT 15/13 A3005 RMK A01 T01450126  RH  088%=      5-min Rain = 0
KEA1 251212Z 28005KT 15/13 A3005 RMK A01 T01450126  RH  088%=      5-min Rain = 0
KEA1 251213Z 28005KT 15/13 A3005 RMK A01 T01460126  RH  088%=      5-min Rain = 0
KEA1 251214Z 28004KT 15/13 A3005 RMK A01 T01460126  RH  088%=      5-min Rain = 0
KEA1 251215Z 27004KT 15/13 A3005 RMK A01 T01470127  RH  088%=      5-min Rain = 0
KEA1 251216Z 28005KT 15/13 A3005 RMK A01 T01470127  RH  087%=      5-min Rain = 0
KEA1 251217Z 29005KT 15/13 A3005 RMK A01 T01480127  RH  087%=      5-min Rain = 0
KEA1 251218Z 29005KT 15/13 A3005 RMK A01 T01490128  RH  087%=      5-min Rain = 0
KEA1 251219Z 29005KT 15/13 A3005 RMK A01 T01500128  RH  087%=      5-min Rain = 0
KEA1 251220Z 29005KT 15/13 A3005 RMK A01 T01510128  RH  087%=      5-min Rain = 0
KEA1 251221Z 29005KT 15/13 A3005 RMK A01 T01510128  RH  086%=      5-min Rain = 0
KEA1 251222Z 30005KT 15/13 A3005 RMK A01 T01520129  RH  086%=      5-min Rain = 0
KEA1 251223Z 29004KT 15/13 A3005 RMK A01 T01530129  RH  086%=      5-min Rain = 0
KEA1 251224Z 29004KT 15/13 A3005 RMK A01 T01530129  RH  086%=      5-min Rain = 0
KEA1 251225Z 29005KT 15/13 A3005 RMK A01 T01540130  RH  086%=      5-min Rain = 0
KEA1 251226Z 29005KT 15/13 A3005 RMK A01 T01540130  RH  085%=      5-min Rain = 0
KEA1 251227Z 28004KT 16/13 A3005 RMK A01 T01550131  RH  085%=      5-min Rain = 0
KEA1 251228Z 28005KT 16/13 A3005 RMK A01 T01560132  RH  085%=      5-min Rain = 0
KEA1 251229Z 28005KT 16/13 A3005 RMK A01 T01570132  RH  085%=      5-min Rain = 0
KEA1 251230Z 27005KT 16/13 A3005 RMK A01 T01580132  RH  084%=      5-min Rain = 0
KEA1 251231Z 27005KT 16/13 A3005 RMK A01 T01590132  RH  084%=      5-min Rain = 0
KEA1 251232Z 26006KT 16/13 A3005 RMK A01 T01600131  RH  083%=      5-min Rain = 0
KEA1 251233Z 26006KT 16/13 A3005 RMK A01 T01610131  RH  083%=      5-min Rain = 0
KEA1 251234Z 26005KT 16/13 A3005 RMK A01 T01620132  RH  082%=      5-min Rain = 0
KEA1 251235Z 25006KT 16/13 A3005 RMK A01 T01630131  RH  081%=      5-min Rain = 0
KEA1 251236Z 25006KT 16/13 A3005 RMK A01 T01640131  RH  081%=      5-min Rain = 0
KEA1 251237Z 25006KT 17/13 A3005 RMK A01 T01650131  RH  080%=      5-min Rain = 0
KEA1 251238Z 25006KT 17/13 A3005 RMK A01 T01660131  RH  080%=      5-min Rain = 0
KEA1 251239Z 25006KT 17/13 A3005 RMK A01 T01670131  RH  079%=      5-min Rain = 0
KEA1 251240Z 25006KT 17/13 A3005 RMK A01 T01680131  RH  079%=      5-min Rain = 0
KEA1 251241Z 25006KT 17/13 A3005 RMK A01 T01690130  RH  078%=      5-min Rain = 0
KEA1 251242Z 25006KT 17/13 A3005 RMK A01 T01700131  RH  077%=      5-min Rain = 0
KEA1 251243Z 25006KT 17/13 A3005 RMK A01 T01710130  RH  077%=      5-min Rain = 0
KEA1 251244Z 25007KT 17/13 A3005 RMK A01 T01720130  RH  076%=      5-min Rain = 0
KEA1 251245Z 25006KT 17/13 A3005 RMK A01 T01730130  RH  076%=      5-min Rain = 0
KEA1 251246Z 25005KT 17/13 A3005 RMK A01 T01730131  RH  076%=      5-min Rain = 0
KEA1 251247Z 25006KT 17/13 A3005 RMK A01 T01740131  RH  076%=      5-min Rain = 0
KEA1 251248Z 25005KT 17/13 A3005 RMK A01 T01740130  RH  075%=      5-min Rain = 0
KEA1 251249Z 24006KT 18/13 A3005 RMK A01 T01750131  RH  075%=      5-min Rain = 0
KEA1 251250Z 25005KT 18/13 A3005 RMK A01 T01760131  RH  075%=      5-min Rain = 0
KEA1 251251Z 25006KT 18/13 A3005 RMK A01 T01770130  RH  074%=      5-min Rain = 0
KEA1 251252Z 25005KT 18/13 A3005 RMK A01 T01770131  RH  074%=      5-min Rain = 0
KEA1 251253Z 24005KT 18/13 A3005 RMK A01 T01780132  RH  075%=      5-min Rain = 0
KEA1 251254Z 24005KT 18/13 A3005 RMK A01 T01790133  RH  074%=      5-min Rain = 0
KEA1 251255Z 24005KT 18/13 A3005 RMK A01 T01800134  RH  074%=      5-min Rain = 0
KEA1 251256Z 25006KT 18/13 A3005 RMK A01 T01800133  RH  074%=      5-min Rain = 0
KEA1 251257Z 25006KT 18/13 A3005 RMK A01 T01810133  RH  073%=      5-min Rain = 0
KEA1 251258Z 25006KT 18/13 A3005 RMK A01 T01820133  RH  073%=      5-min Rain = 0
KEA1 251259Z 25006KT 18/13 A3005 RMK A01 T01830134  RH  073%=      5-min Rain = 0
KEA1 251300Z 25006KT 18/13 A3005 RMK A01 T01830133  RH  072%=      5-min Rain = 0
KEA1 251301Z 25006KT 18/13 A3005 RMK A01 T01840133  RH  072%=      5-min Rain = 0
KEA1 251302Z 25006KT 18/13 A3005 RMK A01 T01840133  RH  072%=      5-min Rain = 0
KEA1 251303Z 25006KT 19/13 A3005 RMK A01 T01850133  RH  072%=      5-min Rain = 0
KEA1 251304Z 25005KT 19/13 A3005 RMK A01 T01850134  RH  072%=      5-min Rain = 0
KEA1 251305Z 25006KT 19/13 A3005 RMK A01 T01860134  RH  071%=      5-min Rain = 0
KEA1 251306Z 25006KT 19/13 A3005 RMK A01 T01870134  RH  071%=      5-min Rain = 0
KEA1 251307Z 25005KT 19/13 A3005 RMK A01 T01870134  RH  071%=      5-min Rain = 0
KEA1 251308Z 25005KT 19/14 A3005 RMK A01 T01880135  RH  071%=      5-min Rain = 0
KEA1 251309Z 25006KT 19/13 A3005 RMK A01 T01880134  RH  071%=      5-min Rain = 0
KEA1 251310Z 25005KT 19/13 A3005 RMK A01 T01880134  RH  071%=      5-min Rain = 0
KEA1 251311Z 26005KT 19/13 A3005 RMK A01 T01890134  RH  070%=      5-min Rain = 0
KEA1 251312Z 25004KT 19/14 A3005 RMK A01 T01890138  RH  072%=      5-min Rain = 0
KEA1 251313Z 25005KT 19/14 A3005 RMK A01 T01900137  RH  071%=      5-min Rain = 0
KEA1 251314Z 25005KT 19/14 A3005 RMK A01 T01910136  RH  071%=      5-min Rain = 0
KEA1 251315Z 25005KT 19/14 A3005 RMK A01 T01910136  RH  070%=      5-min Rain = 0
KEA1 251316Z 25004KT 19/14 A3005 RMK A01 T01910136  RH  070%=      5-min Rain = 0
KEA1 251317Z 25005KT 19/14 A3005 RMK A01 T01910137  RH  071%=      5-min Rain = 0
KEA1 251318Z 25005KT 19/14 A3005 RMK A01 T01910137  RH  071%=      5-min Rain = 0
KEA1 251319Z 25005KT 19/14 A3005 RMK A01 T01910137  RH  071%=      5-min Rain = 0
KEA1 251320Z 24005KT 19/14 A3005 RMK A01 T01920138  RH  071%=      5-min Rain = 0
KEA1 251321Z 25005KT 19/14 A3005 RMK A01 T01930138  RH  070%=      5-min Rain = 0
KEA1 251322Z 24005KT 19/14 A3005 RMK A01 T01940140  RH  071%=      5-min Rain = 0
KEA1 251323Z 25007KT 20/14 A3005 RMK A01 T01950138  RH  070%=      5-min Rain = 0
KEA1 251324Z 25007KT 20/14 A3005 RMK A01 T01960137  RH  069%=      5-min Rain = 0
KEA1 251325Z 25008KT 20/14 A3005 RMK A01 T01960138  RH  069%=      5-min Rain = 0
KEA1 251326Z 25008KT 20/14 A3005 RMK A01 T01970139  RH  069%=      5-min Rain = 0
KEA1 251327Z 25007KT 20/14 A3005 RMK A01 T01980138  RH  068%=      5-min Rain = 0
KEA1 251328Z 25008KT 20/14 A3005 RMK A01 T01980139  RH  069%=      5-min Rain = 0
KEA1 251329Z 24008KT 20/14 A3005 RMK A01 T01990139  RH  068%=      5-min Rain = 0
KEA1 251330Z 24007KT 20/14 A3005 RMK A01 T01990140  RH  069%=      5-min Rain = 0
KEA1 251331Z 24006KT 20/14 A3005 RMK A01 T02000141  RH  069%=      5-min Rain = 0
KEA1 251332Z 24007KT 20/14 A3006 RMK A01 T02010141  RH  068%=      5-min Rain = 0
KEA1 251333Z 24006KT 20/14 A3006 RMK A01 T02020142  RH  068%=      5-min Rain = 0
KEA1 251334Z 24007KT 20/14 A3006 RMK A01 T02020144  RH  069%=      5-min Rain = 0
KEA1 251335Z 22006KT 20/14 A3006 RMK A01 T02030143  RH  069%=      5-min Rain = 0
KEA1 251336Z 20007KT 20/14 A3006 RMK A01 T02040144  RH  069%=      5-min Rain = 0
KEA1 251337Z 20008KT 21/14 A3006 RMK A01 T02050142  RH  067%=      5-min Rain = 0
KEA1 251338Z 20008KT 21/14 A3006 RMK A01 T02060142  RH  066%=      5-min Rain = 0
KEA1 251339Z 20008KT 21/14 A3006 RMK A01 T02070140  RH  066%=      5-min Rain = 0
KEA1 251340Z 21009KT 21/14 A3006 RMK A01 T02070140  RH  065%=      5-min Rain = 0
KEA1 251341Z 20008KT 21/14 A3006 RMK A01 T02080142  RH  066%=      5-min Rain = 0
KEA1 251342Z 21006KT 21/14 A3005 RMK A01 T02080141  RH  065%=      5-min Rain = 0
KEA1 251343Z 20008KT 21/14 A3005 RMK A01 T02080142  RH  066%=      5-min Rain = 0
KEA1 251344Z 22007KT 21/14 A3005 RMK A01 T02090141  RH  065%=      5-min Rain = 0
KEA1 251345Z 21006KT 21/14 A3005 RMK A01 T02090143  RH  066%=      5-min Rain = 0
KEA1 251346Z 21007KT 21/14 A3005 RMK A01 T02100144  RH  066%=      5-min Rain = 0
KEA1 251347Z 21006KT 21/14 A3005 RMK A01 T02110143  RH  065%=      5-min Rain = 0
KEA1 251348Z 20007KT 21/15 A3006 RMK A01 T02130146  RH  066%=      5-min Rain = 0
KEA1 251349Z 20007KT 22/15 A3006 RMK A01 T02150145  RH  065%=      5-min Rain = 0
KEA1 251350Z 20007KT 22/14 A3006 RMK A01 T02150142  RH  063%=      5-min Rain = 0
KEA1 251351Z 21007KT 22/14 A3006 RMK A01 T02160142  RH  063%=      5-min Rain = 0
KEA1 251352Z 20008KT 22/14 A3006 RMK A01 T02160143  RH  063%=      5-min Rain = 0
KEA1 251353Z 21009KT 22/14 A3006 RMK A01 T02170143  RH  063%=      5-min Rain = 0
KEA1 251354Z 21006KT 22/14 A3006 RMK A01 T02170143  RH  063%=      5-min Rain = 0
KEA1 251355Z 21007KT 22/15 A3006 RMK A01 T02180145  RH  063%=      5-min Rain = 0
KEA1 251356Z 22008KT 22/15 A3006 RMK A01 T02190145  RH  063%=      5-min Rain = 0
KEA1 251357Z 21010KT 22/14 A3006 RMK A01 T02200144  RH  062%=      5-min Rain = 0
KEA1 251358Z 24008KT 22/14 A3006 RMK A01 T02210144  RH  062%=      5-min Rain = 0
KEA1 251359Z 20010G15KT 22/15 A3006 RMK A01 T02210145  RH  062%=      5-min Rain = 0
KEA1 251400Z 22011KT 22/15 A3006 RMK A01 T02220145  RH  062%=      5-min Rain = 0
KEA1 251401Z 20010KT 22/15 A3006 RMK A01 T02230147  RH  062%=      5-min Rain = 0
KEA1 251402Z 20011KT 23/15 A3006 RMK A01 T02260147  RH  061%=      5-min Rain = 0
KEA1 251403Z 21010KT 23/15 A3006 RMK A01 T02260145  RH  060%=      5-min Rain = 0
KEA1 251404Z 21009KT 23/15 A3006 RMK A01 T02270147  RH  061%=      5-min Rain = 0
KEA1 251405Z 23008KT 23/15 A3006 RMK A01 T02270151  RH  062%=      5-min Rain = 0
KEA1 251406Z 20007KT 23/15 A3006 RMK A01 T02280149  RH  061%=      5-min Rain = 0
KEA1 251407Z 21008KT 23/15 A3006 RMK A01 T02290148  RH  060%=      5-min Rain = 0
KEA1 251408Z 21007G12KT 23/15 A3006 RMK A01 T02290151  RH  062%=      5-min Rain = 0
KEA1 251409Z 22010G15KT 23/15 A3006 RMK A01 T02310149  RH  060%=      5-min Rain = 0
KEA1 251410Z 21012G18KT 23/15 A3006 RMK A01 T02310148  RH  059%=      5-min Rain = 0
KEA1 251411Z 21010G15KT 23/15 A3006 RMK A01 T02310149  RH  060%=      5-min Rain = 0
KEA1 251412Z 21012KT 23/15 A3006 RMK A01 T02320149  RH  060%=      5-min Rain = 0
KEA1 251413Z 21013KT 23/15 A3006 RMK A01 T02320149  RH  060%=      5-min Rain = 0
KEA1 251414Z 21014KT 23/15 A3006 RMK A01 T02330150  RH  059%=      5-min Rain = 0
KEA1 251415Z 22012KT 23/15 A3006 RMK A01 T02330149  RH  059%=      5-min Rain = 0
KEA1 251416Z 21011KT 23/15 A3006 RMK A01 T02320149  RH  059%=      5-min Rain = 0
KEA1 251417Z 21010G15KT 23/15 A3006 RMK A01 T02330151  RH  060%=      5-min Rain = 0
KEA1 251418Z 20012KT 23/15 A3006 RMK A01 T02340152  RH  060%=      5-min Rain = 0
KEA1 251419Z 20012KT 24/15 A3006 RMK A01 T02350151  RH  059%=      5-min Rain = 0
KEA1 251420Z 21010G16KT 24/15 A3006 RMK A01 T02360152  RH  059%=      5-min Rain = 0
KEA1 251421Z 22011KT 24/15 A3006 RMK A01 T02370152  RH  059%=      5-min Rain = 0
KEA1 251422Z 22012KT 24/15 A3006 RMK A01 T02370151  RH  058%=      5-min Rain = 0
KEA1 251423Z 21012KT 24/15 A3006 RMK A01 T02360151  RH  059%=      5-min Rain = 0
KEA1 251424Z 21014KT 24/15 A3006 RMK A01 T02360151  RH  059%=      5-min Rain = 0
KEA1 251425Z 22011KT 24/15 A3006 RMK A01 T02360151  RH  059%=      5-min Rain = 0
KEA1 251426Z 21010KT 24/15 A3006 RMK A01 T02370153  RH  059%=      5-min Rain = 0
KEA1 251427Z 21011KT 24/15 A3006 RMK A01 T02380152  RH  059%=      5-min Rain = 0
KEA1 251428Z 20015KT 24/15 A3006 RMK A01 T02390153  RH  059%=      5-min Rain = 0
KEA1 251429Z 22013KT 24/15 A3006 RMK A01 T02390152  RH  058%=      5-min Rain = 0
KEA1 251430Z 21013KT 24/15 A3006 RMK A01 T02390153  RH  058%=      5-min Rain = 0
KEA1 251431Z 22013KT 24/15 A3006 RMK A01 T02380153  RH  059%=      5-min Rain = 0
KEA1 251432Z 22011KT 24/15 A3006 RMK A01 T02390154  RH  059%=      5-min Rain = 0
KEA1 251433Z 22015KT 24/15 A3006 RMK A01 T02400154  RH  059%=      5-min Rain = 0
KEA1 251434Z 21014KT 24/15 A3006 RMK A01 T02400153  RH  058%=      5-min Rain = 0
KEA1 251435Z 21014KT 24/15 A3006 RMK A01 T02400154  RH  058%=      5-min Rain = 0
KEA1 251436Z 21013KT 24/16 A3006 RMK A01 T02410155  RH  058%=      5-min Rain = 0
KEA1 251437Z 21011KT 24/16 A3006 RMK A01 T02440158  RH  059%=      5-min Rain = 0
KEA1 251438Z 21013KT 25/16 A3006 RMK A01 T02460157  RH  057%=      5-min Rain = 0
KEA1 251439Z 20012KT 25/16 A3006 RMK A01 T02470157  RH  057%=      5-min Rain = 0
KEA1 251440Z 20012KT 25/16 A3006 RMK A01 T02470156  RH  057%=      5-min Rain = 0
KEA1 251441Z 21014KT 25/16 A3005 RMK A01 T02460155  RH  057%=      5-min Rain = 0
KEA1 251442Z 20013KT 25/16 A3006 RMK A01 T02450155  RH  057%=      5-min Rain = 0
KEA1 251443Z 21013KT 25/16 A3005 RMK A01 T02450155  RH  057%=      5-min Rain = 0
KEA1 251444Z 21012KT 25/16 A3006 RMK A01 T02450155  RH  057%=      5-min Rain = 0
KEA1 251445Z 20012KT 25/16 A3006 RMK A01 T02450156  RH  057%=      5-min Rain = 0
KEA1 251446Z 20014KT 25/16 A3006 RMK A01 T02460156  RH  057%=      5-min Rain = 0
KEA1 251447Z 21014KT 25/16 A3005 RMK A01 T02460155  RH  057%=      5-min Rain = 0
KEA1 251448Z 22014KT 25/16 A3005 RMK A01 T02460156  RH  057%=      5-min Rain = 0
KEA1 251449Z 21016KT 25/16 A3005 RMK A01 T02470155  RH  057%=      5-min Rain = 0
KEA1 251450Z 20014KT 25/15 A3005 RMK A01 T02470154  RH  056%=      5-min Rain = 0
KEA1 251451Z 21013KT 25/16 A3005 RMK A01 T02460155  RH  057%=      5-min Rain = 0
KEA1 251452Z 22012KT 25/16 A3006 RMK A01 T02460155  RH  057%=      5-min Rain = 0
KEA1 251453Z 21011KT 25/15 A3005 RMK A01 T02460153  RH  056%=      5-min Rain = 0
KEA1 251454Z 21011KT 25/16 A3005 RMK A01 T02470155  RH  057%=      5-min Rain = 0
KEA1 251455Z 22011KT 25/16 A3005 RMK A01 T02480155  RH  056%=      5-min Rain = 0
KEA1 251456Z 21011KT 25/16 A3005 RMK A01 T02490155  RH  056%=      5-min Rain = 0
KEA1 251457Z 22011KT 25/16 A3006 RMK A01 T02490156  RH  056%=      5-min Rain = 0
KEA1 251458Z 22013KT 25/15 A3006 RMK A01 T02500154  RH  055%=      5-min Rain = 0
KEA1 251459Z 22009KT 25/15 A3005 RMK A01 T02480153  RH  056%=      5-min Rain = 0
KEA1 251500Z 21010KT 25/16 A3005 RMK A01 T02490156  RH  056%=      5-min Rain = 0
KEA1 251501Z 20011KT 25/16 A3005 RMK A01 T02510156  RH  056%=      5-min Rain = 0
KEA1 251502Z 19011KT 25/16 A3005 RMK A01 T02530156  RH  055%=      5-min Rain = 0
KEA1 251503Z 21011KT 26/16 A3005 RMK A01 T02550158  RH  055%=      5-min Rain = 0
KEA1 251504Z 21011KT 26/16 A3006 RMK A01 T02570158  RH  054%=      5-min Rain = 0
KEA1 251505Z 22013KT 26/16 A3005 RMK A01 T02570156  RH  053%=      5-min Rain = 0
KEA1 251506Z 21017KT 26/15 A3005 RMK A01 T02560154  RH  053%=      5-min Rain = 0
KEA1 251507Z 21016KT 25/15 A3005 RMK A01 T02530151  RH  053%=      5-min Rain = 0
KEA1 251508Z 21014KT 25/15 A3005 RMK A01 T02510152  RH  054%=      5-min Rain = 0
KEA1 251509Z 19014KT 25/15 A3005 RMK A01 T02510154  RH  055%=      5-min Rain = 0
KEA1 251510Z 20014KT 25/15 A3005 RMK A01 T02520152  RH  054%=      5-min Rain = 0
KEA1 251511Z 20013KT 25/15 A3005 RMK A01 T02520154  RH  054%=      5-min Rain = 0
KEA1 251512Z 19013KT 25/15 A3005 RMK A01 T02530154  RH  054%=      5-min Rain = 0
KEA1 251513Z 19014KT 26/15 A3005 RMK A01 T02560154  RH  053%=      5-min Rain = 0
KEA1 251514Z 19012KT 26/15 A3005 RMK A01 T02570153  RH  053%=      5-min Rain = 0
KEA1 251515Z 19011KT 26/16 A3005 RMK A01 T02570157  RH  054%=      5-min Rain = 0
KEA1 251516Z 20010KT 26/16 A3005 RMK A01 T02600157  RH  053%=      5-min Rain = 0
KEA1 251517Z 20012KT 26/16 A3005 RMK A01 T02620156  RH  052%=      5-min Rain = 0
KEA1 251518Z 19014KT 26/15 A3005 RMK A01 T02600152  RH  051%=      5-min Rain = 0
KEA1 251519Z 19013KT 26/15 A3005 RMK A01 T02560152  RH  053%=      5-min Rain = 0
KEA1 251520Z 20013KT 26/16 A3005 RMK A01 T02570155  RH  053%=      5-min Rain = 0
KEA1 251521Z 22013KT 26/15 A3005 RMK A01 T02600153  RH  052%=      5-min Rain = 0
KEA1 251522Z 22012KT 26/15 A3005 RMK A01 T02600152  RH  052%=      5-min Rain = 0
KEA1 251523Z 21012KT 26/15 A3005 RMK A01 T02600152  RH  051%=      5-min Rain = 0
KEA1 251524Z 20012KT 26/15 A3005 RMK A01 T02600153  RH  052%=      5-min Rain = 0
KEA1 251525Z 20009KT 26/16 A3005 RMK A01 T02610156  RH  052%=      5-min Rain = 0
KEA1 251526Z 19010KT 26/16 A3005 RMK A01 T02630155  RH  051%=      5-min Rain = 0
KEA1 251527Z 18008KT 26/16 A3005 RMK A01 T02630157  RH  052%=      5-min Rain = 0
KEA1 251528Z 19010KT 26/16 A3005 RMK A01 T02640158  RH  052%=      5-min Rain = 0
KEA1 251529Z 19011KT 27/16 A3005 RMK A01 T02660156  RH  051%=      5-min Rain = 0
KEA1 251530Z 18010KT 27/16 A3005 RMK A01 T02650156  RH  051%=      5-min Rain = 0
KEA1 251531Z 19009KT 26/16 A3005 RMK A01 T02640156  RH  052%=      5-min Rain = 0
KEA1 251532Z 22010KT 26/16 A3005 RMK A01 T02640156  RH  051%=      5-min Rain = 0
KEA1 251533Z 20009KT 27/16 A3005 RMK A01 T02650157  RH  051%=      5-min Rain = 0
KEA1 251534Z 21007KT 27/16 A3005 RMK A01 T02660156  RH  051%=      5-min Rain = 0
KEA1 251535Z 19008KT 27/16 A3005 RMK A01 T02670161  RH  052%=      5-min Rain = 0
KEA1 251536Z 20009KT 27/16 A3005 RMK A01 T02700159  RH  051%=      5-min Rain = 0
KEA1 251537Z 22009KT 27/16 A3005 RMK A01 T02700156  RH  050%=      5-min Rain = 0
KEA1 251538Z 21007KT 27/15 A3005 RMK A01 T02650154  RH  050%=      5-min Rain = 0
KEA1 251539Z 18012KT 26/16 A3005 RMK A01 T02640155  RH  051%=      5-min Rain = 0
KEA1 251540Z 19008KT 27/16 A3005 RMK A01 T02650157  RH  051%=      5-min Rain = 0
KEA1 251541Z 19008KT 27/16 A3005 RMK A01 T02670157  RH  051%=      5-min Rain = 0
KEA1 251542Z 21010KT 27/16 A3005 RMK A01 T02680156  RH  050%=      5-min Rain = 0
KEA1 251543Z 19011KT 27/16 A3005 RMK A01 T02710156  RH  050%=      5-min Rain = 0
KEA1 251544Z 18010KT 27/16 A3005 RMK A01 T02730156  RH  049%=      5-min Rain = 0
KEA1 251545Z 20011KT 27/15 A3005 RMK A01 T02740154  RH  048%=      5-min Rain = 0
KEA1 251546Z 21009KT 27/16 A3005 RMK A01 T02740157  RH  049%=      5-min Rain = 0
KEA1 251547Z 19009KT 28/16 A3005 RMK A01 T02750155  RH  048%=      5-min Rain = 0
KEA1 251548Z 18009KT 27/16 A3005 RMK A01 T02740155  RH  048%=      5-min Rain = 0
KEA1 251549Z 17010KT 27/16 A3005 RMK A01 T02740156  RH  048%=      5-min Rain = 0
KEA1 251550Z 18011KT 28/16 A3005 RMK A01 T02750155  RH  048%=      5-min Rain = 0
KEA1 251551Z 18011KT 27/16 A3005 RMK A01 T02740155  RH  048%=      5-min Rain = 0
KEA1 251552Z 19011KT 27/16 A3005 RMK A01 T02740157  RH  049%=      5-min Rain = 0
KEA1 251553Z 20010KT 28/16 A3005 RMK A01 T02760155  RH  048%=      5-min Rain = 0
KEA1 251554Z 21009KT 28/16 A3005 RMK A01 T02760158  RH  049%=      5-min Rain = 0
KEA1 251555Z 21009KT 28/16 A3005 RMK A01 T02770156  RH  048%=      5-min Rain = 0
KEA1 251556Z 21006KT 28/16 A3005 RMK A01 T02760159  RH  049%=      5-min Rain = 0
KEA1 251557Z 19010KT 28/16 A3005 RMK A01 T02790158  RH  048%=      5-min Rain = 0
KEA1 251558Z 18012KT 28/16 A3005 RMK A01 T02810157  RH  047%=      5-min Rain = 0
KEA1 251559Z 20012KT 28/16 A3005 RMK A01 T02810155  RH  046%=      5-min Rain = 0
KEA1 251600Z 20011KT 28/16 A3005 RMK A01 T02800155  RH  047%=      5-min Rain = 0
KEA1 251601Z 19009KT 28/16 A3005 RMK A01 T02790158  RH  047%=      5-min Rain = 0
KEA1 251602Z 19009KT 28/16 A3005 RMK A01 T02810157  RH  047%=      5-min Rain = 0
KEA1 251603Z 19009KT 28/16 A3005 RMK A01 T02810157  RH  047%=      5-min Rain = 0
KEA1 251604Z 19011KT 28/16 A3004 RMK A01 T02810157  RH  047%=      5-min Rain = 0
KEA1 251605Z 20008KT 29/16 A3005 RMK A01 T02850157  RH  046%=      5-min Rain = 0
KEA1 251606Z 19012KT 29/16 A3005 RMK A01 T02860155  RH  045%=      5-min Rain = 0
KEA1 251607Z 20011KT 29/16 A3005 RMK A01 T02860155  RH  045%=      5-min Rain = 0
KEA1 251608Z 20014KT 29/16 A3005 RMK A01 T02850156  RH  045%=      5-min Rain = 0
KEA1 251609Z 19012KT 29/15 A3005 RMK A01 T02850154  RH  045%=      5-min Rain = 0
KEA1 251610Z 19010KT 28/16 A3005 RMK A01 T02840155  RH  045%=      5-min Rain = 0
KEA1 251611Z 20009KT 28/16 A3005 RMK A01 T02840155  RH  046%=      5-min Rain = 0
KEA1 251612Z 20012KT 28/15 A3005 RMK A01 T02840154  RH  045%=      5-min Rain = 0
KEA1 251613Z 20009KT 28/15 A3005 RMK A01 T02840153  RH  045%=      5-min Rain = 0
KEA1 251614Z 21008KT 28/16 A3005 RMK A01 T02840156  RH  046%=      5-min Rain = 0
KEA1 251615Z 18009KT 29/15 A3005 RMK A01 T02850153  RH  044%=      5-min Rain = 0
KEA1 251616Z 19012KT 29/15 A3005 RMK A01 T02870154  RH  045%=      5-min Rain = 0
KEA1 251617Z 19013KT 29/15 A3005 RMK A01 T02910154  RH  043%=      5-min Rain = 0
KEA1 251618Z 18011KT 29/16 A3005 RMK A01 T02910155  RH  044%=      5-min Rain = 0
KEA1 251619Z 18010KT 29/15 A3005 RMK A01 T02910153  RH  043%=      5-min Rain = 0
KEA1 251620Z 18010KT 29/15 A3005 RMK A01 T02910154  RH  043%=      5-min Rain = 0
KEA1 251621Z 18011KT 29/15 A3005 RMK A01 T02910154  RH  043%=      5-min Rain = 0
KEA1 251622Z 20012KT 29/15 A3005 RMK A01 T02910154  RH  043%=      5-min Rain = 0
KEA1 251623Z 22010KT 29/15 A3005 RMK A01 T02920153  RH  043%=      5-min Rain = 0
KEA1 251624Z 21006KT 29/16 A3005 RMK A01 T02940157  RH  043%=      5-min Rain = 0
KEA1 251625Z 20009KT 30/16 A3005 RMK A01 T02990157  RH  042%=      5-min Rain = 0
KEA1 251626Z 19012KT 30/16 A3005 RMK A01 T02990155  RH  042%=      5-min Rain = 0
KEA1 251627Z 19012KT 30/15 A3005 RMK A01 T02960152  RH  042%=      5-min Rain = 0
KEA1 251628Z 18010KT 29/15 A3005 RMK A01 T02930153  RH  043%=      5-min Rain = 0
KEA1 251629Z 18010KT 29/15 A3005 RMK A01 T02930154  RH  043%=      5-min Rain = 0
KEA1 251630Z 20010KT 30/15 A3005 RMK A01 T02950151  RH  042%=      5-min Rain = 0
KEA1 251631Z 19011KT 30/15 A3005 RMK A01 T02960152  RH  042%=      5-min Rain = 0
KEA1 251632Z 20013KT 30/15 A3005 RMK A01 T02980149  RH  040%=      5-min Rain = 0
KEA1 251633Z 21011KT 30/15 A3005 RMK A01 T02980147  RH  040%=      5-min Rain = 0
KEA1 251634Z 20010KT 30/15 A3005 RMK A01 T02980151  RH  041%=      5-min Rain = 0
KEA1 251635Z 19012KT 30/15 A3005 RMK A01 T02990149  RH  040%=      5-min Rain = 0
KEA1 251636Z 20012KT 30/15 A3005 RMK A01 T02990147  RH  040%=      5-min Rain = 0
KEA1 251637Z 20012KT 30/15 A3005 RMK A01 T02990147  RH  040%=      5-min Rain = 0
KEA1 251638Z 20011KT 30/15 A3005 RMK A01 T02970149  RH  041%=      5-min Rain = 0
KEA1 251639Z 19009KT 30/15 A3005 RMK A01 T02970151  RH  041%=      5-min Rain = 0
KEA1 251640Z 20008G13KT 30/15 A3005 RMK A01 T02960153  RH  042%=      5-min Rain = 0
KEA1 251641Z 20011KT 30/15 A3005 RMK A01 T02980149  RH  040%=      5-min Rain = 0
KEA1 251642Z 20010KT 30/15 A3005 RMK A01 T02980150  RH  041%=      5-min Rain = 0
KEA1 251643Z 19010KT 30/15 A3005 RMK A01 T03020150  RH  040%=      5-min Rain = 0
KEA1 251644Z 19012KT 31/15 A3004 RMK A01 T03050148  RH  039%=      5-min Rain = 0
KEA1 251645Z 19009KT 31/15 A3005 RMK A01 T03060147  RH  038%=      5-min Rain = 0
KEA1 251646Z 20010KT 30/15 A3005 RMK A01 T03040148  RH  039%=      5-min Rain = 0
KEA1 251647Z 21009KT 30/15 A3005 RMK A01 T03030148  RH  039%=      5-min Rain = 0
KEA1 251648Z 20011KT 30/15 A3005 RMK A01 T03040149  RH  039%=      5-min Rain = 0
KEA1 251649Z 19010KT 30/15 A3005 RMK A01 T03040150  RH  039%=      5-min Rain = 0
KEA1 251650Z 18012KT 30/15 A3004 RMK A01 T03030149  RH  039%=      5-min Rain = 0
KEA1 251651Z 19011KT 30/15 A3005 RMK A01 T03040149  RH  039%=      5-min Rain = 0
KEA1 251652Z 20007KT 30/15 A3005 RMK A01 T03030150  RH  040%=      5-min Rain = 0
KEA1 251653Z 20006KT 30/15 A3005 RMK A01 T03020153  RH  041%=      5-min Rain = 0
KEA1 251654Z 20008KT 31/16 A3005 RMK A01 T03070159  RH  041%=      5-min Rain = 0
KEA1 251655Z 19012KT 31/15 A3004 RMK A01 T03120149  RH  037%=      5-min Rain = 0
KEA1 251656Z 19011KT 31/14 A3004 RMK A01 T03090143  RH  036%=      5-min Rain = 0
KEA1 251657Z 21010KT 31/15 A3005 RMK A01 T03070146  RH  038%=      5-min Rain = 0
KEA1 251658Z 20011KT 31/15 A3004 RMK A01 T03060146  RH  038%=      5-min Rain = 0
KEA1 251659Z 21013KT 31/14 A3004 RMK A01 T03070143  RH  037%=      5-min Rain = 0
KEA1 251700Z 22012KT 31/14 A3004 RMK A01 T03090139  RH  036%=      5-min Rain = 0
KEA1 251701Z 21011KT 31/14 A3005 RMK A01 T03110141  RH  036%=      5-min Rain = 0
KEA1 251702Z 20010KT 31/14 A3005 RMK A01 T03130143  RH  036%=      5-min Rain = 0
KEA1 251703Z 20009KT 31/14 A3004 RMK A01 T03130142  RH  035%=      5-min Rain = 0
KEA1 251704Z 20011KT 31/15 A3004 RMK A01 T03110147  RH  037%=      5-min Rain = 0
KEA1 251705Z 21009KT 31/14 A3004 RMK A01 T03110142  RH  036%=      5-min Rain = 0
KEA1 251706Z 22010KT 31/14 A3004 RMK A01 T03090141  RH  036%=      5-min Rain = 0
KEA1 251707Z 21012KT 31/14 A3004 RMK A01 T03090138  RH  035%=      5-min Rain = 0
KEA1 251708Z 19011KT 31/14 A3004 RMK A01 T03110144  RH  036%=      5-min Rain = 0
KEA1 251709Z 18009KT 31/15 A3004 RMK A01 T03130146  RH  036%=      5-min Rain = 0
KEA1 251710Z 19009KT 31/14 A3004 RMK A01 T03120143  RH  036%=      5-min Rain = 0
KEA1 251711Z 21009KT 31/15 A3004 RMK A01 T03130145  RH  036%=      5-min Rain = 0
KEA1 251712Z 21009KT 32/15 A3004 RMK A01 T03150145  RH  036%=      5-min Rain = 0
KEA1 251713Z 20007G12KT 32/14 A3004 RMK A01 T03150142  RH  035%=      5-min Rain = 0
KEA1 251714Z 21006KT 31/15 A3004 RMK A01 T03120146  RH  037%=      5-min Rain = 0
KEA1 251715Z 21009KT 32/15 A3004 RMK A01 T03160147  RH  036%=      5-min Rain = 0
KEA1 251716Z 19012G17KT 32/14 A3004 RMK A01 T03200140  RH  033%=      5-min Rain = 0
KEA1 251717Z 19015KT 32/14 A3004 RMK A01 T03200136  RH  033%=      5-min Rain = 0
KEA1 251718Z 19013KT 32/14 A3004 RMK A01 T03200138  RH  033%=      5-min Rain = 0
KEA1 251719Z 20012KT 32/14 A3004 RMK A01 T03230139  RH  033%=      5-min Rain = 0
KEA1 251720Z 21014KT 32/13 A3004 RMK A01 T03230133  RH  031%=      5-min Rain = 0
KEA1 251721Z 21012KT 32/13 A3004 RMK A01 T03210127  RH  031%=      5-min Rain = 0
KEA1 251722Z 21011KT 32/12 A3004 RMK A01 T03200124  RH  030%=      5-min Rain = 0
KEA1 251723Z 22013KT 32/13 A3004 RMK A01 T03200126  RH  031%=      5-min Rain = 0
KEA1 251724Z 22012KT 32/13 A3004 RMK A01 T03220126  RH  030%=      5-min Rain = 0
KEA1 251725Z 22013KT 32/12 A3004 RMK A01 T03230123  RH  030%=      5-min Rain = 0
KEA1 251726Z 23013KT 32/13 A3004 RMK A01 T03230127  RH  030%=      5-min Rain = 0
KEA1 251727Z 22011KT 32/13 A3004 RMK A01 T03230131  RH  031%=      5-min Rain = 0
KEA1 251728Z 21010G15KT 32/13 A3004 RMK A01 T03230133  RH  031%=      5-min Rain = 0
KEA1 251729Z 20014KT 33/13 A3004 RMK A01 T03250126  RH  030%=      5-min Rain = 0
KEA1 251730Z 21014KT 33/12 A3004 RMK A01 T03250121  RH  029%=      5-min Rain = 0
KEA1 251731Z 20012KT 33/12 A3004 RMK A01 T03250124  RH  029%=      5-min Rain = 0
KEA1 251732Z 20010KT 33/12 A3004 RMK A01 T03260124  RH  029%=      5-min Rain = 0
KEA1 251733Z 21013G18KT 33/13 A3003 RMK A01 T03250125  RH  029%=      5-min Rain = 0
KEA1 251734Z 21012KT 33/13 A3003 RMK A01 T03270126  RH  029%=      5-min Rain = 0
KEA1 251735Z 21014KT 33/13 A3003 RMK A01 T03300125  RH  029%=      5-min Rain = 0
KEA1 251736Z 19012KT 33/13 A3003 RMK A01 T03280129  RH  030%=      5-min Rain = 0
KEA1 251737Z 21011KT 33/13 A3003 RMK A01 T03300134  RH  031%=      5-min Rain = 0
KEA1 251738Z 22010KT 33/13 A3003 RMK A01 T03320129  RH  029%=      5-min Rain = 0
KEA1 251739Z 21010KT 33/13 A3003 RMK A01 T03280128  RH  030%=      5-min Rain = 0
KEA1 251740Z 19009KT 33/13 A3003 RMK A01 T03250125  RH  030%=      5-min Rain = 0
KEA1 251741Z 20012KT 32/13 A3003 RMK A01 T03230128  RH  031%=      5-min Rain = 0
KEA1 251742Z 19011KT 33/13 A3003 RMK A01 T03270127  RH  030%=      5-min Rain = 0
KEA1 251743Z 20011KT 33/12 A3003 RMK A01 T03280121  RH  028%=      5-min Rain = 0
KEA1 251744Z 20011KT 33/11 A3003 RMK A01 T03280113  RH  027%=      5-min Rain = 0
KEA1 251745Z 18011KT 33/12 A3003 RMK A01 T03290121  RH  028%=      5-min Rain = 0
KEA1 251746Z 19012KT 33/12 A3003 RMK A01 T03310123  RH  028%=      5-min Rain = 0
KEA1 251747Z 19011KT 33/12 A3003 RMK A01 T03310120  RH  028%=      5-min Rain = 0
KEA1 251748Z 20011KT 33/12 A3003 RMK A01 T03290122  RH  028%=      5-min Rain = 0
KEA1 251749Z 21011KT 33/12 A3003 RMK A01 T03300121  RH  028%=      5-min Rain = 0
KEA1 251750Z 21012KT 33/12 A3003 RMK A01 T03330117  RH  027%=      5-min Rain = 0
KEA1 251751Z 19011G16KT 33/12 A3003 RMK A01 T03320116  RH  027%=      5-min Rain = 0
KEA1 251752Z 18010KT 33/11 A3003 RMK A01 T03310111  RH  026%=      5-min Rain = 0
KEA1 251753Z 17009KT 33/11 A3003 RMK A01 T03310114  RH  027%=      5-min Rain = 0
KEA1 251754Z 19011KT 33/12 A3003 RMK A01 T03310118  RH  027%=      5-min Rain = 0
KEA1 251755Z 19008KT 33/12 A3003 RMK A01 T03310122  RH  028%=      5-min Rain = 0
KEA1 251756Z 19010KT 34/13 A3003 RMK A01 T03350125  RH  028%=      5-min Rain = 0
KEA1 251757Z 20008KT 34/12 A3003 RMK A01 T03410122  RH  027%=      5-min Rain = 0
KEA1 251758Z 20011KT 34/12 A3003 RMK A01 T03430121  RH  026%=      5-min Rain = 0
KEA1 251759Z 19009KT 34/11 A3003 RMK A01 T03400114  RH  025%=      5-min Rain = 0
KEA1 251800Z 19011G16KT 34/11 A3003 RMK A01 T03380111  RH  025%=      5-min Rain = 0
KEA1 251801Z 20014KT 34/10 A3003 RMK A01 T03390099  RH  023%=      5-min Rain = 0
KEA1 251802Z 20014KT 34/11 A3003 RMK A01 T03370107  RH  025%=      5-min Rain = 0
KEA1 251803Z 19011KT 33/11 A3003 RMK A01 T03340108  RH  025%=      5-min Rain = 0
KEA1 251804Z 20011KT 34/10 A3003 RMK A01 T03350101  RH  024%=      5-min Rain = 0
KEA1 251805Z 19010KT 34/11 A3003 RMK A01 T03360109  RH  025%=      5-min Rain = 0
KEA1 251806Z 17013KT 34/11 A3003 RMK A01 T03380106  RH  024%=      5-min Rain = 0
KEA1 251807Z 17012KT 34/10 A3003 RMK A01 T03410095  RH  022%=      5-min Rain = 0
KEA1 251808Z 19013KT 34/09 A3003 RMK A01 T03420086  RH  021%=      5-min Rain = 0
KEA1 251809Z 18014KT 35/09 A3002 RMK A01 T03450086  RH  020%=      5-min Rain = 0
KEA1 251810Z 17013KT 35/09 A3003 RMK A01 T03450090  RH  021%=      5-min Rain = 0
KEA1 251811Z 17013KT 34/09 A3003 RMK A01 T03440092  RH  021%=      5-min Rain = 0
KEA1 251812Z 17012KT 34/09 A3003 RMK A01 T03430089  RH  021%=      5-min Rain = 0
KEA1 251813Z 18012KT 34/07 A3003 RMK A01 T03410074  RH  019%=      5-min Rain = 0
KEA1 251814Z 18009KT 34/07 A3003 RMK A01 T03360071  RH  019%=      5-min Rain = 0
KEA1 251815Z 18010KT 34/07 A3003 RMK A01 T03400069  RH  019%=      5-min Rain = 0
KEA1 251816Z 20011KT 35/09 A3002 RMK A01 T03450087  RH  021%=      5-min Rain = 0
KEA1 251817Z 18013G18KT 35/09 A3002 RMK A01 T03450089  RH  021%=      5-min Rain = 0
KEA1 251818Z 18014KT 35/08 A3002 RMK A01 T03450078  RH  019%=      5-min Rain = 0
KEA1 251819Z 18011KT 35/09 A3003 RMK A01 T03450090  RH  021%=      5-min Rain = 0
KEA1 251820Z 17010KT 35/09 A3003 RMK A01 T03500089  RH  020%=      5-min Rain = 0
KEA1 251821Z 17011KT 35/08 A3002 RMK A01 T03500077  RH  019%=      5-min Rain = 0
KEA1 251822Z 16009KT 35/08 A3002 RMK A01 T03460080  RH  019%=      5-min Rain = 0
KEA1 251823Z 19011KT 34/09 A3002 RMK A01 T03440087  RH  021%=      5-min Rain = 0
KEA1 251824Z 18016KT 34/09 A3002 RMK A01 T03430090  RH  021%=      5-min Rain = 0
KEA1 251825Z 17014KT 35/09 A3002 RMK A01 T03450085  RH  020%=      5-min Rain = 0
KEA1 251826Z 17008KT 35/08 A3002 RMK A01 T03450079  RH  020%=      5-min Rain = 0
KEA1 251827Z 15009KT 35/08 A3002 RMK A01 T03480075  RH  019%=      5-min Rain = 0
KEA1 251828Z 16007KT 35/06 A3002 RMK A01 T03480063  RH  017%=      5-min Rain = 0
KEA1 251829Z 15008KT 35/07 A3002 RMK A01 T03450074  RH  019%=      5-min Rain = 0
KEA1 251830Z 17006KT 35/08 A3002 RMK A01 T03450081  RH  020%=      5-min Rain = 0
KEA1 251831Z 20010KT 35/09 A3002 RMK A01 T03450086  RH  020%=      5-min Rain = 0
KEA1 251832Z 19008G13KT 35/09 A3002 RMK A01 T03500086  RH  020%=      5-min Rain = 0
KEA1 251833Z 19010KT 35/08 A3002 RMK A01 T03520076  RH  018%=      5-min Rain = 0
KEA1 251834Z 20014KT 35/07 A3002 RMK A01 T03490073  RH  018%=      5-min Rain = 0
KEA1 251835Z 19010KT 35/08 A3002 RMK A01 T03470078  RH  019%=      5-min Rain = 0
KEA1 251836Z 20008KT 35/08 A3002 RMK A01 T03480077  RH  019%=      5-min Rain = 0
KEA1 251837Z 21007KT 35/07 A3002 RMK A01 T03470074  RH  019%=      5-min Rain = 0
KEA1 251838Z 22007KT 34/07 A3002 RMK A01 T03440074  RH  019%=      5-min Rain = 0
KEA1 251839Z 20010KT 34/07 A3002 RMK A01 T03420074  RH  019%=      5-min Rain = 0
KEA1 251840Z 22013KT 35/08 A3002 RMK A01 T03450078  RH  019%=      5-min Rain = 0
KEA1 251841Z 23011KT 35/08 A3002 RMK A01 T03470077  RH  019%=      5-min Rain = 0
KEA1 251842Z 22014KT 35/08 A3002 RMK A01 T03500084  RH  020%=      5-min Rain = 0
KEA1 251843Z 22013KT 35/07 A3002 RMK A01 T03480074  RH  019%=      5-min Rain = 0
KEA1 251844Z 22012KT 34/07 A3002 RMK A01 T03430074  RH  019%=      5-min Rain = 0
KEA1 251845Z 21010KT 34/08 A3002 RMK A01 T03440076  RH  019%=      5-min Rain = 0
KEA1 251846Z 20007KT 35/08 A3002 RMK A01 T03450075  RH  019%=      5-min Rain = 0
KEA1 251847Z 22006KT 35/08 A3002 RMK A01 T03450080  RH  020%=      5-min Rain = 0
KEA1 251848Z 23010KT 35/08 A3002 RMK A01 T03490078  RH  019%=      5-min Rain = 0
KEA1 251849Z 25007KT 35/07 A3002 RMK A01 T03500073  RH  018%=      5-min Rain = 0
KEA1 251850Z 21008KT 35/08 A3002 RMK A01 T03490077  RH  019%=      5-min Rain = 0
KEA1 251851Z 18012KT 35/08 A3001 RMK A01 T03490083  RH  020%=      5-min Rain = 0
KEA1 251852Z 21012KT 35/08 A3001 RMK A01 T03500084  RH  020%=      5-min Rain = 0
KEA1 251853Z 21012KT 35/09 A3002 RMK A01 T03530086  RH  020%=      5-min Rain = 0
KEA1 251854Z 20012KT 35/08 A3002 RMK A01 T03540081  RH  019%=      5-min Rain = 0
KEA1 251855Z 19012KT 35/08 A3002 RMK A01 T03530082  RH  019%=      5-min Rain = 0
KEA1 251856Z 17013KT 36/08 A3001 RMK A01 T03550075  RH  018%=      5-min Rain = 0
KEA1 251857Z 18010KT 35/07 A3002 RMK A01 T03510065  RH  017%=      5-min Rain = 0
KEA1 251858Z 20004KT 35/06 A3002 RMK A01 T03470057  RH  017%=      5-min Rain = 0
KEA1 251859Z 18011KT 35/07 A3001 RMK A01 T03460068  RH  018%=      5-min Rain = 0
KEA1 251900Z 17010KT 35/07 A3001 RMK A01 T03490070  RH  018%=      5-min Rain = 0
KEA1 251901Z 20008KT 35/08 A3001 RMK A01 T03500075  RH  019%=      5-min Rain = 0
KEA1 251902Z 18005KT 35/08 A3001 RMK A01 T03490079  RH  019%=      5-min Rain = 0
KEA1 251903Z 19006KT 35/08 A3001 RMK A01 T03500081  RH  019%=      5-min Rain = 0
KEA1 251904Z 20011KT 35/08 A3001 RMK A01 T03530084  RH  019%=      5-min Rain = 0
KEA1 251905Z 20014KT 35/08 A3001 RMK A01 T03540080  RH  019%=      5-min Rain = 0
KEA1 251906Z 20014KT 35/08 A3001 RMK A01 T03510075  RH  018%=      5-min Rain = 0
KEA1 251907Z 20012KT 35/08 A3001 RMK A01 T03480078  RH  019%=      5-min Rain = 0
KEA1 251908Z 21008KT 35/07 A3001 RMK A01 T03480073  RH  018%=      5-min Rain = 0
KEA1 251909Z 19010KT 35/08 A3001 RMK A01 T03470079  RH  019%=      5-min Rain = 0
KEA1 251910Z 18010KT 35/07 A3001 RMK A01 T03500073  RH  018%=      5-min Rain = 0
KEA1 251911Z 18011KT 35/07 A3001 RMK A01 T03510074  RH  018%=      5-min Rain = 0
KEA1 251912Z 18017KT 35/07 A3001 RMK A01 T03530070  RH  017%=      5-min Rain = 0
KEA1 251913Z 17012KT 35/06 A3001 RMK A01 T03530064  RH  017%=      5-min Rain = 0
KEA1 251914Z 19014KT 35/08 A3001 RMK A01 T03540076  RH  018%=      5-min Rain = 0
KEA1 251915Z 21013KT 36/07 A3001 RMK A01 T03580073  RH  017%=      5-min Rain = 0
KEA1 251916Z 20015KT 35/07 A3001 RMK A01 T03520067  RH  017%=      5-min Rain = 0
KEA1 251917Z 19013KT 35/07 A3001 RMK A01 T03500072  RH  018%=      5-min Rain = 0
KEA1 251918Z 21010KT 35/07 A3001 RMK A01 T03510069  RH  018%=      5-min Rain = 0
KEA1 251919Z 20009KT 35/06 A3001 RMK A01 T03500063  RH  017%=      5-min Rain = 0
KEA1 251920Z 22011G18KT 35/06 A3001 RMK A01 T03490062  RH  017%=      5-min Rain = 0
KEA1 251921Z 20014KT 35/06 A3001 RMK A01 T03510063  RH  017%=      5-min Rain = 0
KEA1 251922Z 19014KT 35/06 A3001 RMK A01 T03520062  RH  017%=      5-min Rain = 0
KEA1 251923Z 20012KT 35/06 A3001 RMK A01 T03530061  RH  016%=      5-min Rain = 0
KEA1 251924Z 20010KT 35/06 A3001 RMK A01 T03530058  RH  016%=      5-min Rain = 0
KEA1 251925Z 21009KT 35/06 A3001 RMK A01 T03500057  RH  016%=      5-min Rain = 0
KEA1 251926Z 20011G16KT 35/06 A3001 RMK A01 T03500061  RH  017%=      5-min Rain = 0
KEA1 251927Z 20009G15KT 35/06 A3001 RMK A01 T03510064  RH  017%=      5-min Rain = 0
KEA1 251928Z 19011KT 35/07 A30 RMK A01 T03530066  RH  017%=      5-min Rain = 0
KEA1 251929Z 17008KT 36/07 A30 RMK A01 T03550068  RH  017%=      5-min Rain = 0
KEA1 251930Z 17012KT 36/07 A30 RMK A01 T03570074  RH  018%=      5-min Rain = 0
KEA1 251931Z 18012KT 36/07 A30 RMK A01 T03590070  RH  017%=      5-min Rain = 0
KEA1 251932Z 19012KT 36/08 A30 RMK A01 T03600076  RH  018%=      5-min Rain = 0
KEA1 251933Z 19009KT 36/06 A30 RMK A01 T03600064  RH  016%=      5-min Rain = 0
KEA1 251934Z 18012G17KT 36/06 A30 RMK A01 T03580060  RH  016%=      5-min Rain = 0
KEA1 251935Z 15010G18KT 36/06 A30 RMK A01 T03590060  RH  016%=      5-min Rain = 0
KEA1 251936Z 15014KT 36/05 A30 RMK A01 T03590051  RH  015%=      5-min Rain = 0
KEA1 251937Z 13014G20KT 35/05 A30 RMK A01 T03510048  RH  015%=      5-min Rain = 0
KEA1 251938Z 14017KT 35/05 A30 RMK A01 T03450047  RH  016%=      5-min Rain = 0
KEA1 251939Z 15014KT 34/05 A30 RMK A01 T03400047  RH  016%=      5-min Rain = 0
KEA1 251940Z 14014KT 34/05 A30 RMK A01 T03390046  RH  016%=      5-min Rain = 0
KEA1 251941Z 14014KT 34/04 A30 RMK A01 T03380044  RH  016%=      5-min Rain = 0
KEA1 251942Z 13014KT 34/04 A30 RMK A01 T03370040  RH  016%=      5-min Rain = 0
KEA1 251943Z 15016KT 34/05 A30 RMK A01 T03370045  RH  016%=      5-min Rain = 0
KEA1 251944Z 13013KT 34/05 A30 RMK A01 T03430049  RH  016%=      5-min Rain = 0
KEA1 251945Z 15009KT 35/05 A30 RMK A01 T03460053  RH  016%=      5-min Rain = 0
KEA1 251946Z 16006KT 35/06 A30 RMK A01 T03500057  RH  016%=      5-min Rain = 0
KEA1 251947Z 17009KT 36/06 A30 RMK A01 T03550058  RH  016%=      5-min Rain = 0
KEA1 251948Z 18010G15KT 36/06 A30 RMK A01 T03560056  RH  016%=      5-min Rain = 0
KEA1 251949Z 17013KT 36/06 A30 RMK A01 T03570060  RH  016%=      5-min Rain = 0
KEA1 251950Z 18013KT 36/06 A30 RMK A01 T03600057  RH  015%=      5-min Rain = 0
KEA1 251951Z 18009KT 36/05 A30 RMK A01 T03590048  RH  015%=      5-min Rain = 0
KEA1 251952Z 18012G17KT 36/06 A30 RMK A01 T03570055  RH  015%=      5-min Rain = 0
KEA1 251953Z 17012KT 36/06 A30 RMK A01 T03580059  RH  016%=      5-min Rain = 0
KEA1 251954Z 18012KT 36/06 A30 RMK A01 T03590059  RH  016%=      5-min Rain = 0
KEA1 251955Z 19009KT 36/06 A30 RMK A01 T03610055  RH  015%=      5-min Rain = 0
KEA1 251956Z 16013KT 36/06 A30 RMK A01 T03570056  RH  016%=      5-min Rain = 0
KEA1 251957Z 15009G14KT 36/05 A30 RMK A01 T03580054  RH  015%=      5-min Rain = 0
KEA1 251958Z 17005KT 36/05 A30 RMK A01 T03550053  RH  015%=      5-min Rain = 0
KEA1 251959Z 19010G15KT 36/06 A30 RMK A01 T03550059  RH  016%=      5-min Rain = 0
KEA1 252000Z 19013KT 36/05 A30 RMK A01 T03580053  RH  015%=      5-min Rain = 0
KEA1 252001Z 19010KT 36/05 A30 RMK A01 T03580049  RH  015%=      5-min Rain = 0
KEA1 252002Z 18006KT 36/05 A30 RMK A01 T03570047  RH  015%=      5-min Rain = 0
KEA1 252003Z 19009KT 36/05 A30 RMK A01 T03570047  RH  015%=      5-min Rain = 0
KEA1 252004Z 17011KT 36/04 A30 RMK A01 T03600041  RH  014%=      5-min Rain = 0
KEA1 252005Z 17010KT 36/03 A30 RMK A01 T03590031  RH  013%=      5-min Rain = 0
KEA1 252006Z 18012KT 36/04 A2999 RMK A01 T03570040  RH  014%=      5-min Rain = 0
KEA1 252007Z 17014KT 36/04 A2999 RMK A01 T03590041  RH  014%=      5-min Rain = 0
KEA1 252008Z 17008KT 36/04 A30 RMK A01 T03600037  RH  013%=      5-min Rain = 0
KEA1 252009Z 17006KT 36/04 A30 RMK A01 T03590035  RH  013%=      5-min Rain = 0
KEA1 252010Z 18006KT 36/04 A2999 RMK A01 T03570036  RH  014%=      5-min Rain = 0
KEA1 252011Z 16006KT 35/04 A2999 RMK A01 T03530040  RH  014%=      5-min Rain = 0
KEA1 252012Z 14013G18KT 35/04 A2999 RMK A01 T03510041  RH  014%=      5-min Rain = 0
KEA1 252013Z 14010KT 35/03 A2999 RMK A01 T03510033  RH  014%=      5-min Rain = 0
KEA1 252014Z 13011G16KT 36/04 A2999 RMK A01 T03590044  RH  014%=      5-min Rain = 0
KEA1 252015Z 14012KT 36/03 A2999 RMK A01 T03620033  RH  013%=      5-min Rain = 0
KEA1 252016Z 15011KT 36/04 A2999 RMK A01 T03600038  RH  013%=      5-min Rain = 0
KEA1 252017Z 17011KT 36/05 A2999 RMK A01 T03610046  RH  014%=      5-min Rain = 0
KEA1 252018Z 19010KT 37/05 A2999 RMK A01 T03650046  RH  014%=      5-min Rain = 0
KEA1 252019Z 18009KT 37/05 A2999 RMK A01 T03660049  RH  014%=      5-min Rain = 0
KEA1 252020Z 18007G12KT 37/04 A2999 RMK A01 T03670043  RH  013%=      5-min Rain = 0
KEA1 252021Z 18010KT 37/04 A2999 RMK A01 T03680040  RH  013%=      5-min Rain = 0
KEA1 252022Z 21011KT 37/04 A2999 RMK A01 T03660035  RH  013%=      5-min Rain = 0
KEA1 252023Z 20014KT 36/04 A2999 RMK A01 T03620038  RH  013%=      5-min Rain = 0
KEA1 252024Z 20014KT 36/03 A2999 RMK A01 T03630033  RH  013%=      5-min Rain = 0
KEA1 252025Z 20012KT 36/03 A2999 RMK A01 T03590033  RH  013%=      5-min Rain = 0
KEA1 252026Z 19011KT 35/03 A2999 RMK A01 T03510026  RH  013%=      5-min Rain = 0
KEA1 252027Z 18007KT 35/02 A2999 RMK A01 T03460024  RH  013%=      5-min Rain = 0
KEA1 252028Z 21006KT 34/03 A2999 RMK A01 T03430026  RH  014%=      5-min Rain = 0
KEA1 252029Z 21009KT 34/03 A2999 RMK A01 T03430025  RH  014%=      5-min Rain = 0
KEA1 252030Z 21007KT 34/02 A2999 RMK A01 T03430022  RH  013%=      5-min Rain = 0
KEA1 252031Z 16004KT 35/02 A2999 RMK A01 T03460021  RH  013%=      5-min Rain = 0
KEA1 252032Z 15003KT 35/03 A2999 RMK A01 T03500034  RH  014%=      5-min Rain = 0
KEA1 252033Z 17012G17KT 36/04 A2999 RMK A01 T03550035  RH  014%=      5-min Rain = 0
KEA1 252034Z 19013KT 36/03 A2998 RMK A01 T03560034  RH  013%=      5-min Rain = 0
KEA1 252035Z 19016KT 36/03 A2998 RMK A01 T03550032  RH  013%=      5-min Rain = 0
KEA1 252036Z 19013G18KT 36/03 A2998 RMK A01 T03550031  RH  013%=      5-min Rain = 0
KEA1 252037Z 21011KT 35/04 A2998 RMK A01 T03540037  RH  014%=      5-min Rain = 0
KEA1 252038Z 21011KT 36/04 A2998 RMK A01 T03560039  RH  014%=      5-min Rain = 0
KEA1 252039Z 18015KT 36/04 A2998 RMK A01 T03580038  RH  014%=      5-min Rain = 0
KEA1 252040Z 18017KT 36/03 A2998 RMK A01 T03560033  RH  013%=      5-min Rain = 0
KEA1 252041Z 18016KT 36/03 A2998 RMK A01 T03550032  RH  013%=      5-min Rain = 0
KEA1 252042Z 20017KT 35/03 A2998 RMK A01 T03530029  RH  013%=      5-min Rain = 0
KEA1 252043Z 19015KT 35/03 A2998 RMK A01 T03530028  RH  013%=      5-min Rain = 0
KEA1 252044Z 19013KT 35/03 A2998 RMK A01 T03540030  RH  013%=      5-min Rain = 0
KEA1 252045Z 18012KT 36/03 A2998 RMK A01 T03560031  RH  013%=      5-min Rain = 0
KEA1 252046Z 19008KT 36/03 A2998 RMK A01 T03550025  RH  013%=      5-min Rain = 0
KEA1 252047Z 19008KT 35/03 A2998 RMK A01 T03540028  RH  013%=      5-min Rain = 0
KEA1 252048Z 17007KT 36/03 A2998 RMK A01 T03560030  RH  013%=      5-min Rain = 0
KEA1 252049Z 14011KT 36/03 A2998 RMK A01 T03590029  RH  013%=      5-min Rain = 0
KEA1 252050Z 14009KT 36/03 A2998 RMK A01 T03630025  RH  012%=      5-min Rain = 0
KEA1 252051Z 14011KT 37/02 A2998 RMK A01 T03650019  RH  011%=      5-min Rain = 0
KEA1 252052Z 13019KT 36/02 A2998 RMK A01 T03640016  RH  011%=      5-min Rain = 0
KEA1 252053Z 14015KT 36/01 A2998 RMK A01 T03630005  RH  011%=      5-min Rain = 0
KEA1 252054Z 14008KT 36/01 A2998 RMK A01 T03600010  RH  011%=      5-min Rain = 0
KEA1 252055Z 14008KT 36/01 A2998 RMK A01 T03600013  RH  011%=      5-min Rain = 0
KEA1 252056Z 17012KT 36/01 A2998 RMK A01 T03630014  RH  011%=      5-min Rain = 0
KEA1 252057Z 17014KT 36/01 A2998 RMK A01 T03630005  RH  010%=      5-min Rain = 0
KEA1 252058Z 17008KT 36/00 A2998 RMK A01 T03610001  RH  010%=      5-min Rain = 0
KEA1 252059Z 15003KT 36/M00 A2998 RMK A01 T03561002  RH  010%=      5-min Rain = 0
KEA1 252100Z 17009KT 35/01 A2998 RMK A01 T03530005  RH  011%=      5-min Rain = 0
KEA1 252101Z 17010KT 35/01 A2998 RMK A01 T03520013  RH  012%=      5-min Rain = 0
KEA1 252102Z 17010KT 35/02 A2998 RMK A01 T03510016  RH  012%=      5-min Rain = 0
KEA1 252103Z 17009KT 35/02 A2998 RMK A01 T03520017  RH  012%=      5-min Rain = 0
KEA1 252104Z 18008KT 35/02 A2998 RMK A01 T03520017  RH  012%=      5-min Rain = 0
KEA1 252105Z 16008KT 35/02 A2998 RMK A01 T03520018  RH  012%=      5-min Rain = 0
KEA1 252106Z 18007KT 35/01 A2998 RMK A01 T03520014  RH  012%=      5-min Rain = 0
KEA1 252107Z 17007KT 35/01 A2998 RMK A01 T03520014  RH  012%=      5-min Rain = 0
KEA1 252108Z 17005KT 35/01 A2998 RMK A01 T03500008  RH  012%=      5-min Rain = 0
KEA1 252109Z 18005KT 35/00 A2998 RMK A01 T03480001  RH  011%=      5-min Rain = 0
KEA1 252110Z 18004KT 35/01 A2998 RMK A01 T03470008  RH  012%=      5-min Rain = 0
KEA1 252111Z 17003KT 35/01 A2998 RMK A01 T03460011  RH  012%=      5-min Rain = 0
KEA1 252112Z 16002KT 35/01 A2998 RMK A01 T03470006  RH  012%=      5-min Rain = 0
KEA1 252113Z 18004KT 35/02 A2998 RMK A01 T03460022  RH  013%=      5-min Rain = 0
KEA1 252114Z 18007KT 35/03 A2998 RMK A01 T03460027  RH  013%=      5-min Rain = 0
KEA1 252115Z 16010KT 35/03 A2998 RMK A01 T03460028  RH  014%=      5-min Rain = 0
KEA1 252116Z 18011KT 35/03 A2997 RMK A01 T03460025  RH  013%=      5-min Rain = 0
KEA1 252117Z 17011KT 35/02 A2997 RMK A01 T03450024  RH  013%=      5-min Rain = 0
KEA1 252118Z 19009KT 35/03 A2997 RMK A01 T03480028  RH  013%=      5-min Rain = 0
KEA1 252119Z 17012KT 35/03 A2997 RMK A01 T03540028  RH  013%=      5-min Rain = 0
KEA1 252120Z 18009KT 36/02 A2997 RMK A01 T03580024  RH  012%=      5-min Rain = 0
KEA1 252121Z 18007KT 36/02 A2997 RMK A01 T03580024  RH  012%=      5-min Rain = 0
KEA1 252122Z 17008KT 36/03 A2997 RMK A01 T03580025  RH  012%=      5-min Rain = 0
KEA1 252123Z 15007KT 36/03 A2997 RMK A01 T03590031  RH  013%=      5-min Rain = 0
KEA1 252124Z 13007KT 36/04 A2997 RMK A01 T03590039  RH  014%=      5-min Rain = 0
KEA1 252125Z 14010KT 36/05 A2997 RMK A01 T03600045  RH  014%=      5-min Rain = 0
KEA1 252126Z 15013KT 36/05 A2997 RMK A01 T03600046  RH  014%=      5-min Rain = 0
KEA1 252127Z 13010KT 36/05 A2997 RMK A01 T03600050  RH  015%=      5-min Rain = 0
KEA1 252128Z 12011KT 36/06 A2997 RMK A01 T03620060  RH  016%=      5-min Rain = 0
KEA1 252129Z 13010G15KT 36/05 A2997 RMK A01 T03640048  RH  014%=      5-min Rain = 0
KEA1 252130Z 14009KT 36/05 A2997 RMK A01 T03560045  RH  014%=      5-min Rain = 0
KEA1 252131Z 14018G23KT 35/05 A2997 RMK A01 T03520048  RH  015%=      5-min Rain = 0
KEA1 252132Z 14015KT 35/05 A2997 RMK A01 T03520047  RH  015%=      5-min Rain = 0
KEA1 252133Z 14016KT 35/05 A2997 RMK A01 T03520051  RH  016%=      5-min Rain = 0
KEA1 252134Z 15013KT 36/06 A2997 RMK A01 T03570056  RH  016%=      5-min Rain = 0
KEA1 252135Z 13014KT 36/05 A2997 RMK A01 T03570046  RH  014%=      5-min Rain = 0
KEA1 252136Z 13012G17KT 35/05 A2997 RMK A01 T03510048  RH  015%=      5-min Rain = 0
KEA1 252137Z 13015KT 35/05 A2997 RMK A01 T03500049  RH  015%=      5-min Rain = 0
KEA1 252138Z 11011KT 35/05 A2997 RMK A01 T03520052  RH  016%=      5-min Rain = 0
KEA1 252139Z 10010KT 36/06 A2997 RMK A01 T03560055  RH  016%=      5-min Rain = 0
KEA1 252140Z 11011KT 36/05 A2997 RMK A01 T03590053  RH  015%=      5-min Rain = 0
KEA1 252141Z 11010G16KT 36/06 A2996 RMK A01 T03600059  RH  016%=      5-min Rain = 0
KEA1 252142Z 13016KT 36/05 A2996 RMK A01 T03610053  RH  015%=      5-min Rain = 0
KEA1 252143Z 15016KT 36/05 A2996 RMK A01 T03600049  RH  015%=      5-min Rain = 0
KEA1 252144Z 17019G24KT 36/04 A2996 RMK A01 T03610043  RH  014%=      5-min Rain = 0
KEA1 252145Z 17018KT 36/04 A2996 RMK A01 T03620041  RH  014%=      5-min Rain = 0
KEA1 252146Z 17017G22KT 36/04 A2996 RMK A01 T03630042  RH  014%=      5-min Rain = 0
KEA1 252147Z 17017KT 36/04 A2996 RMK A01 T03630043  RH  014%=      5-min Rain = 0
KEA1 252148Z 17017G22KT 37/05 A2996 RMK A01 T03650047  RH  014%=      5-min Rain = 0
KEA1 252149Z 18016KT 37/04 A2996 RMK A01 T03670043  RH  013%=      5-min Rain = 0
KEA1 252150Z 18016KT 37/04 A2996 RMK A01 T03660042  RH  013%=      5-min Rain = 0
KEA1 252151Z 17014KT 37/04 A2996 RMK A01 T03650038  RH  013%=      5-min Rain = 0
KEA1 252152Z 18014KT 36/04 A2996 RMK A01 T03630035  RH  013%=      5-min Rain = 0
KEA1 252153Z 19010KT 36/03 A2996 RMK A01 T03600032  RH  013%=      5-min Rain = 0
KEA1 252154Z 20007KT 36/04 A2996 RMK A01 T03580037  RH  014%=      5-min Rain = 0
KEA1 252155Z 16013G19KT 36/05 A2996 RMK A01 T03580048  RH  015%=      5-min Rain = 0
KEA1 252156Z 17014KT 36/05 A2996 RMK A01 T03630048  RH  014%=      5-min Rain = 0
KEA1 252157Z 17010KT 36/05 A2996 RMK A01 T03610046  RH  014%=      5-min Rain = 0
KEA1 252158Z 16008KT 36/05 A2996 RMK A01 T03590049  RH  015%=      5-min Rain = 0
KEA1 252159Z 16008KT 36/05 A2996 RMK A01 T03580052  RH  015%=      5-min Rain = 0
KEA1 252200Z 15012G19KT 36/05 A2996 RMK A01 T03570051  RH  015%=      5-min Rain = 0
KEA1 252201Z 16015KT 35/05 A2996 RMK A01 T03540047  RH  015%=      5-min Rain = 0
KEA1 252202Z 16018KT 35/05 A2995 RMK A01 T03520045  RH  015%=      5-min Rain = 0
KEA1 252203Z 15013G19KT 35/04 A2996 RMK A01 T03490042  RH  015%=      5-min Rain = 0
KEA1 252204Z 14011KT 35/04 A2996 RMK A01 T03490044  RH  015%=      5-min Rain = 0
KEA1 252205Z 14011KT 35/05 A2996 RMK A01 T03520047  RH  015%=      5-min Rain = 0
KEA1 252206Z 15014G19KT 36/05 A2996 RMK A01 T03570052  RH  015%=      5-min Rain = 0
KEA1 252207Z 16017KT 36/05 A2996 RMK A01 T03590046  RH  014%=      5-min Rain = 0
KEA1 252208Z 16016KT 35/04 A2996 RMK A01 T03540041  RH  014%=      5-min Rain = 0
KEA1 252209Z 17015KT 35/04 A2996 RMK A01 T03480044  RH  015%=      5-min Rain = 0
KEA1 252210Z 18015KT 35/04 A2996 RMK A01 T03450042  RH  015%=      5-min Rain = 0
KEA1 252211Z 17016KT 34/04 A2996 RMK A01 T03420038  RH  015%=      5-min Rain = 0
KEA1 252212Z 16015KT 34/04 A2996 RMK A01 T03410038  RH  015%=      5-min Rain = 0
KEA1 252213Z 18011KT 34/04 A2996 RMK A01 T03390040  RH  015%=      5-min Rain = 0
KEA1 252214Z 17010KT 34/04 A2996 RMK A01 T03390044  RH  016%=      5-min Rain = 0
KEA1 252215Z 17011KT 34/05 A2996 RMK A01 T03390047  RH  016%=      5-min Rain = 0
KEA1 252216Z 16013KT 34/05 A2996 RMK A01 T03390045  RH  016%=      5-min Rain = 0
KEA1 252217Z 17014KT 34/04 A2995 RMK A01 T03400038  RH  015%=      5-min Rain = 0
KEA1 252218Z 16014KT 35/04 A2996 RMK A01 T03450043  RH  015%=      5-min Rain = 0
KEA1 252219Z 16015G20KT 35/04 A2995 RMK A01 T03510044  RH  015%=      5-min Rain = 0
KEA1 252220Z 17015G20KT 35/05 A2995 RMK A01 T03540045  RH  015%=      5-min Rain = 0
KEA1 252221Z 15013KT 35/05 A2996 RMK A01 T03540049  RH  015%=      5-min Rain = 0
KEA1 252222Z 16008KT 36/05 A2996 RMK A01 T03560050  RH  015%=      5-min Rain = 0
KEA1 252223Z 14008KT 36/05 A2995 RMK A01 T03570046  RH  014%=      5-min Rain = 0
KEA1 252224Z 14014KT 36/05 A2995 RMK A01 T03570053  RH  015%=      5-min Rain = 0
KEA1 252225Z 14016KT 36/05 A2995 RMK A01 T03580054  RH  015%=      5-min Rain = 0
KEA1 252226Z 16016KT 36/05 A2995 RMK A01 T03590051  RH  015%=      5-min Rain = 0
KEA1 252227Z 16016KT 36/05 A2995 RMK A01 T03600049  RH  015%=      5-min Rain = 0
KEA1 252228Z 15019G24KT 36/05 A2995 RMK A01 T03590051  RH  015%=      5-min Rain = 0
KEA1 252229Z 16018KT 36/05 A2995 RMK A01 T03580050  RH  015%=      5-min Rain = 0
KEA1 252230Z 16015KT 36/05 A2995 RMK A01 T03580051  RH  015%=      5-min Rain = 0
KEA1 252231Z 16016KT 36/05 A2995 RMK A01 T03570047  RH  015%=      5-min Rain = 0
KEA1 252232Z 16012KT 35/04 A2995 RMK A01 T03510043  RH  015%=      5-min Rain = 0
KEA1 252233Z 18008KT 35/05 A2995 RMK A01 T03500045  RH  015%=      5-min Rain = 0
KEA1 252234Z 15006KT 35/05 A2995 RMK A01 T03510048  RH  015%=      5-min Rain = 0
KEA1 252235Z 13013KT 35/06 A2995 RMK A01 T03540055  RH  016%=      5-min Rain = 0
KEA1 252236Z 14015KT 36/05 A2995 RMK A01 T03570050  RH  015%=      5-min Rain = 0
KEA1 252237Z 14016KT 36/05 A2995 RMK A01 T03570050  RH  015%=      5-min Rain = 0
KEA1 252238Z 14013KT 36/05 A2995 RMK A01 T03560046  RH  015%=      5-min Rain = 0
KEA1 252239Z 13013KT 35/05 A2995 RMK A01 T03540046  RH  015%=      5-min Rain = 0
KEA1 252240Z 14011KT 35/05 A2995 RMK A01 T03520048  RH  015%=      5-min Rain = 0
KEA1 252241Z 14012KT 35/05 A2995 RMK A01 T03530054  RH  016%=      5-min Rain = 0
KEA1 252242Z 14012KT 36/05 A2995 RMK A01 T03560052  RH  015%=      5-min Rain = 0
KEA1 252243Z 13012KT 36/06 A2995 RMK A01 T03560056  RH  016%=      5-min Rain = 0
KEA1 252244Z 13012G18KT 36/06 A2995 RMK A01 T03580057  RH  016%=      5-min Rain = 0
KEA1 252245Z 13017KT 36/05 A2995 RMK A01 T03580051  RH  015%=      5-min Rain = 0
KEA1 252246Z 14016KT 36/05 A2995 RMK A01 T03570052  RH  015%=      5-min Rain = 0
KEA1 252247Z 18015KT 36/05 A2994 RMK A01 T03570050  RH  015%=      5-min Rain = 0
KEA1 252248Z 19015KT 36/05 A2995 RMK A01 T03570052  RH  015%=      5-min Rain = 0
KEA1 252249Z 17014KT 36/05 A2995 RMK A01 T03570052  RH  015%=      5-min Rain = 0
KEA1 252250Z 16013KT 36/05 A2995 RMK A01 T03570049  RH  015%=      5-min Rain = 0
KEA1 252251Z 16012KT 36/05 A2995 RMK A01 T03560048  RH  015%=      5-min Rain = 0
KEA1 252252Z 17012KT 35/05 A2995 RMK A01 T03540046  RH  015%=      5-min Rain = 0
KEA1 252253Z 17011KT 35/05 A2995 RMK A01 T03520052  RH  016%=      5-min Rain = 0
KEA1 252254Z 17011KT 35/05 A2995 RMK A01 T03530052  RH  016%=      5-min Rain = 0
KEA1 252255Z 16016G22KT 36/06 A2995 RMK A01 T03560056  RH  016%=      5-min Rain = 0
KEA1 252256Z 15018KT 36/05 A2995 RMK A01 T03570053  RH  015%=      5-min Rain = 0
KEA1 252257Z 16015KT 36/05 A2995 RMK A01 T03560050  RH  015%=      5-min Rain = 0
KEA1 252258Z 16013KT 35/05 A2995 RMK A01 T03520047  RH  015%=      5-min Rain = 0
KEA1 252259Z 17013KT 35/05 A2995 RMK A01 T03480049  RH  016%=      5-min Rain = 0
KEA1 252300Z 15011G17KT 34/05 A2995 RMK A01 T03440046  RH  016%=      5-min Rain = 0
KEA1 252301Z 16009KT 34/05 A2995 RMK A01 T03420047  RH  016%=      5-min Rain = 0
KEA1 252302Z 17011KT 34/05 A2995 RMK A01 T03410048  RH  016%=      5-min Rain = 0
KEA1 252303Z 16016G21KT 34/05 A2994 RMK A01 T03420052  RH  017%=      5-min Rain = 0
KEA1 252304Z 15020KT 35/05 A2994 RMK A01 T03450053  RH  016%=      5-min Rain = 0
KEA1 252305Z 15014KT 35/05 A2995 RMK A01 T03460053  RH  016%=      5-min Rain = 0
KEA1 252306Z 14015KT 35/06 A2995 RMK A01 T03480056  RH  016%=      5-min Rain = 0
KEA1 252307Z 13014KT 35/06 A2995 RMK A01 T03500055  RH  016%=      5-min Rain = 0
KEA1 252308Z 13011KT 35/06 A2995 RMK A01 T03500055  RH  016%=      5-min Rain = 0
KEA1 252309Z 13014KT 35/06 A2995 RMK A01 T03500055  RH  016%=      5-min Rain = 0
KEA1 252310Z 15013KT 35/06 A2995 RMK A01 T03500056  RH  016%=      5-min Rain = 0
KEA1 252311Z 16015KT 35/06 A2994 RMK A01 T03510057  RH  016%=      5-min Rain = 0
KEA1 252312Z 16013KT 35/06 A2994 RMK A01 T03530055  RH  016%=      5-min Rain = 0
KEA1 252313Z 15015KT 35/06 A2994 RMK A01 T03540055  RH  016%=      5-min Rain = 0
KEA1 252314Z 16014KT 35/06 A2994 RMK A01 T03540055  RH  016%=      5-min Rain = 0
KEA1 252315Z 15016KT 35/06 A2994 RMK A01 T03530056  RH  016%=      5-min Rain = 0
KEA1 252316Z 15016KT 35/06 A2994 RMK A01 T03540057  RH  016%=      5-min Rain = 0
KEA1 252317Z 15016KT 35/06 A2994 RMK A01 T03540055  RH  016%=      5-min Rain = 0
KEA1 252318Z 16012KT 35/06 A2994 RMK A01 T03540055  RH  016%=      5-min Rain = 0
KEA1 252319Z 16014KT 35/06 A2994 RMK A01 T03540057  RH  016%=      5-min Rain = 0
KEA1 252320Z 16014KT 36/06 A2994 RMK A01 T03550056  RH  016%=      5-min Rain = 0
KEA1 252321Z 16012KT 35/05 A2994 RMK A01 T03530053  RH  016%=      5-min Rain = 0
KEA1 252322Z 15013KT 35/06 A2994 RMK A01 T03530057  RH  016%=      5-min Rain = 0
KEA1 252323Z 16015KT 35/06 A2994 RMK A01 T03540055  RH  016%=      5-min Rain = 0
KEA1 252324Z 15016KT 35/05 A2994 RMK A01 T03520053  RH  016%=      5-min Rain = 0
KEA1 252325Z 15015KT 35/06 A2994 RMK A01 T03510056  RH  016%=      5-min Rain = 0
KEA1 252326Z 14013KT 35/06 A2994 RMK A01 T03510056  RH  016%=      5-min Rain = 0
KEA1 252327Z 15014KT 35/06 A2994 RMK A01 T03520059  RH  016%=      5-min Rain = 0
KEA1 252328Z 14015KT 35/06 A2994 RMK A01 T03530055  RH  016%=      5-min Rain = 0
KEA1 252329Z 15010KT 35/06 A2994 RMK A01 T03520055  RH  016%=      5-min Rain = 0
KEA1 252330Z 14012KT 35/06 A2994 RMK A01 T03510058  RH  016%=      5-min Rain = 0
KEA1 252331Z 15014KT 35/06 A2994 RMK A01 T03510056  RH  016%=      5-min Rain = 0
KEA1 252332Z 15017KT 35/06 A2994 RMK A01 T03510057  RH  016%=      5-min Rain = 0
KEA1 252333Z 15015KT 35/06 A2994 RMK A01 T03510060  RH  017%=      5-min Rain = 0
KEA1 252334Z 15014KT 35/06 A2993 RMK A01 T03500059  RH  017%=      5-min Rain = 0
KEA1 252335Z 15011KT 35/07 A2994 RMK A01 T03490065  RH  017%=      5-min Rain = 0
KEA1 252336Z 15016G23KT 35/07 A2993 RMK A01 T03490066  RH  017%=      5-min Rain = 0
KEA1 252337Z 17015KT 35/06 A2993 RMK A01 T03500061  RH  017%=      5-min Rain = 0
KEA1 252338Z 15015KT 35/06 A2993 RMK A01 T03510060  RH  017%=      5-min Rain = 0
KEA1 252339Z 15016KT 35/06 A2993 RMK A01 T03510058  RH  016%=      5-min Rain = 0
KEA1 252340Z 14016KT 35/06 A2993 RMK A01 T03500058  RH  016%=      5-min Rain = 0
KEA1 252341Z 15015KT 35/06 A2993 RMK A01 T03490059  RH  017%=      5-min Rain = 0
KEA1 252342Z 15013KT 35/06 A2993 RMK A01 T03490064  RH  017%=      5-min Rain = 0
KEA1 252343Z 16016KT 35/07 A2993 RMK A01 T03480068  RH  018%=      5-min Rain = 0
KEA1 252344Z 15016KT 35/07 A2993 RMK A01 T03490069  RH  018%=      5-min Rain = 0
KEA1 252345Z 16018KT 35/06 A2993 RMK A01 T03500059  RH  017%=      5-min Rain = 0
KEA1 252346Z 16014KT 35/05 A2993 RMK A01 T03500046  RH  015%=      5-min Rain = 0
KEA1 252347Z 16015KT 35/05 A2993 RMK A01 T03500051  RH  016%=      5-min Rain = 0
KEA1 252348Z 16015KT 35/06 A2993 RMK A01 T03490055  RH  016%=      5-min Rain = 0
KEA1 252349Z 17015KT 35/06 A2993 RMK A01 T03480059  RH  017%=      5-min Rain = 0
KEA1 252350Z 17016KT 35/06 A2993 RMK A01 T03480062  RH  017%=      5-min Rain = 0
KEA1 252351Z 17017KT 35/06 A2992 RMK A01 T03470059  RH  017%=      5-min Rain = 0
KEA1 252352Z 17020KT 35/06 A2993 RMK A01 T03470057  RH  017%=      5-min Rain = 0
KEA1 252353Z 17018G23KT 35/06 A2993 RMK A01 T03460056  RH  017%=      5-min Rain = 0
KEA1 252354Z 16017KT 35/06 A2993 RMK A01 T03460057  RH  017%=      5-min Rain = 0
KEA1 252355Z 17014KT 35/06 A2993 RMK A01 T03460058  RH  017%=      5-min Rain = 0
KEA1 252356Z 17014KT 35/07 A2993 RMK A01 T03460065  RH  018%=      5-min Rain = 0
KEA1 252357Z 15016KT 35/07 A2993 RMK A01 T03460066  RH  018%=      5-min Rain = 0
KEA1 252358Z 15018KT 35/07 A2993 RMK A01 T03460068  RH  018%=      5-min Rain = 0
KEA1 252359Z 16016KT 34/07 A2993 RMK A01 T03440069  RH  018%=      5-min Rain = 0
KEA1 260000Z 16014KT 34/07 A2993 RMK A01 T03440072  RH  019%=      5-min Rain = 0
KEA1 260001Z 16012G20KT 35/08 A2993 RMK A01 T03450076  RH  019%=      5-min Rain = 0
KEA1 260002Z 16014G19KT 35/07 A2993 RMK A01 T03450074  RH  019%=      5-min Rain = 0
KEA1 260003Z 15013KT 35/08 A2993 RMK A01 T03450075  RH  019%=      5-min Rain = 0
KEA1 260004Z 16012KT 35/07 A2993 RMK A01 T03460074  RH  019%=      5-min Rain = 0
KEA1 260005Z 16013G19KT 35/08 A2993 RMK A01 T03460076  RH  019%=      5-min Rain = 0
KEA1 260006Z 16016KT 35/07 A2992 RMK A01 T03460071  RH  018%=      5-min Rain = 0
KEA1 260007Z 16012KT 34/07 A2993 RMK A01 T03440071  RH  018%=      5-min Rain = 0
KEA1 260008Z 16011KT 34/07 A2993 RMK A01 T03440073  RH  019%=      5-min Rain = 0
KEA1 260009Z 16015KT 34/08 A2992 RMK A01 T03440075  RH  019%=      5-min Rain = 0
KEA1 260010Z 16017KT 34/07 A2992 RMK A01 T03440073  RH  019%=      5-min Rain = 0
KEA1 260011Z 15017KT 34/07 A2992 RMK A01 T03430074  RH  019%=      5-min Rain = 0
KEA1 260012Z 15016KT 34/08 A2992 RMK A01 T03430076  RH  019%=      5-min Rain = 0
KEA1 260013Z 15015KT 34/08 A2992 RMK A01 T03420079  RH  020%=      5-min Rain = 0
KEA1 260014Z 16017G22KT 34/08 A2992 RMK A01 T03420079  RH  020%=      5-min Rain = 0
KEA1 260015Z 16018KT 34/08 A2992 RMK A01 T03420079  RH  020%=      5-min Rain = 0
KEA1 260016Z 16020KT 34/08 A2992 RMK A01 T03410080  RH  020%=      5-min Rain = 0
KEA1 260017Z 16017KT 34/08 A2992 RMK A01 T03400082  RH  020%=      5-min Rain = 0
KEA1 260018Z 15019KT 34/08 A2992 RMK A01 T03400084  RH  021%=      5-min Rain = 0
KEA1 260019Z 15018KT 34/09 A2993 RMK A01 T03390087  RH  021%=      5-min Rain = 0
KEA1 260020Z 16018G24KT 34/09 A2992 RMK A01 T03380093  RH  022%=      5-min Rain = 0
KEA1 260021Z 16017KT 34/10 A2993 RMK A01 T03370097  RH  023%=      5-min Rain = 0
KEA1 260022Z 15014KT 34/10 A2993 RMK A01 T03360100  RH  023%=      5-min Rain = 0
KEA1 260023Z 14016KT 34/10 A2993 RMK A01 T03360101  RH  024%=      5-min Rain = 0
KEA1 260024Z 14017KT 34/10 A2993 RMK A01 T03360102  RH  024%=      5-min Rain = 0
KEA1 260025Z 14019KT 34/10 A2993 RMK A01 T03360103  RH  024%=      5-min Rain = 0
KEA1 260026Z 14019G25KT 33/10 A2993 RMK A01 T03340102  RH  024%=      5-min Rain = 0
KEA1 260027Z 14020KT 33/10 A2993 RMK A01 T03330101  RH  024%=      5-min Rain = 0
KEA1 260028Z 15018KT 33/10 A2993 RMK A01 T03330101  RH  024%=      5-min Rain = 0
KEA1 260029Z 14021KT 33/10 A2993 RMK A01 T03320101  RH  024%=      5-min Rain = 0
KEA1 260030Z 15016KT 33/10 A2993 RMK A01 T03320102  RH  024%=      5-min Rain = 0
KEA1 260031Z 15020KT 33/10 A2993 RMK A01 T03320101  RH  024%=      5-min Rain = 0
KEA1 260032Z 15018KT 33/10 A2993 RMK A01 T03320100  RH  024%=      5-min Rain = 0
KEA1 260033Z 15015G20KT 33/10 A2993 RMK A01 T03320101  RH  024%=      5-min Rain = 0
KEA1 260034Z 15016KT 33/10 A2993 RMK A01 T03320102  RH  024%=      5-min Rain = 0
KEA1 260035Z 15018G23KT 33/10 A2993 RMK A01 T03320102  RH  024%=      5-min Rain = 0
KEA1 260036Z 14018G23KT 33/10 A2994 RMK A01 T03320100  RH  024%=      5-min Rain = 0
KEA1 260037Z 14018KT 33/10 A2994 RMK A01 T03310100  RH  024%=      5-min Rain = 0
KEA1 260038Z 14020KT 33/10 A2994 RMK A01 T03310100  RH  024%=      5-min Rain = 0
KEA1 260039Z 15020KT 33/10 A2994 RMK A01 T03310099  RH  024%=      5-min Rain = 0
KEA1 260040Z 15018KT 33/10 A2994 RMK A01 T03300099  RH  024%=      5-min Rain = 0
KEA1 260041Z 15017KT 33/10 A2994 RMK A01 T03300100  RH  024%=      5-min Rain = 0
KEA1 260042Z 15016KT 33/10 A2994 RMK A01 T03300100  RH  024%=      5-min Rain = 0
KEA1 260043Z 14014KT 33/10 A2994 RMK A01 T03290100  RH  025%=      5-min Rain = 0
KEA1 260044Z 14019KT 33/10 A2994 RMK A01 T03300101  RH  025%=      5-min Rain = 0
KEA1 260045Z 14021G26KT 33/10 A2994 RMK A01 T03290100  RH  024%=      5-min Rain = 0
KEA1 260046Z 15020KT 33/10 A2994 RMK A01 T03290100  RH  025%=      5-min Rain = 0
KEA1 260047Z 15019KT 33/10 A2994 RMK A01 T03290099  RH  024%=      5-min Rain = 0
KEA1 260048Z 16016KT 33/10 A2994 RMK A01 T03290100  RH  025%=      5-min Rain = 0
KEA1 260049Z 15014KT 33/10 A2994 RMK A01 T03280101  RH  025%=      5-min Rain = 0
KEA1 260050Z 15016G21KT 33/10 A2994 RMK A01 T03290102  RH  025%=      5-min Rain = 0
KEA1 260051Z 15018KT 33/10 A2994 RMK A01 T03280100  RH  025%=      5-min Rain = 0
KEA1 260052Z 15021KT 33/10 A2994 RMK A01 T03280099  RH  024%=      5-min Rain = 0
KEA1 260053Z 15019KT 33/10 A2994 RMK A01 T03280098  RH  024%=      5-min Rain = 0
KEA1 260054Z 16015KT 33/10 A2994 RMK A01 T03280100  RH  025%=      5-min Rain = 0
KEA1 260055Z 15014KT 33/10 A2994 RMK A01 T03270100  RH  025%=      5-min Rain = 0
KEA1 260056Z 14017KT 33/10 A2994 RMK A01 T03270101  RH  025%=      5-min Rain = 0
KEA1 260057Z 15017KT 33/10 A2994 RMK A01 T03260099  RH  025%=      5-min Rain = 0
KEA1 260058Z 15016KT 33/10 A2994 RMK A01 T03270099  RH  025%=      5-min Rain = 0
KEA1 260059Z 15017G22KT 33/10 A2994 RMK A01 T03260098  RH  025%=      5-min Rain = 0
KEA1 260100Z 15015KT 33/10 A2994 RMK A01 T03250099  RH  025%=      5-min Rain = 0
KEA1 260101Z 14017KT 33/10 A2995 RMK A01 T03250099  RH  025%=      5-min Rain = 0
KEA1 260102Z 15017G22KT 33/10 A2995 RMK A01 T03250098  RH  025%=      5-min Rain = 0
KEA1 260103Z 15016KT 33/10 A2995 RMK A01 T03250099  RH  025%=      5-min Rain = 0
KEA1 260104Z 15016KT 32/10 A2995 RMK A01 T03240099  RH  025%=      5-min Rain = 0
KEA1 260105Z 15013KT 32/10 A2995 RMK A01 T03240101  RH  025%=      5-min Rain = 0
KEA1 260106Z 15018KT 32/10 A2995 RMK A01 T03230099  RH  025%=      5-min Rain = 0
KEA1 260107Z 15015KT 32/10 A2995 RMK A01 T03230099  RH  025%=      5-min Rain = 0
KEA1 260108Z 15017KT 32/10 A2995 RMK A01 T03230099  RH  025%=      5-min Rain = 0
KEA1 260109Z 15016G21KT 32/10 A2995 RMK A01 T03230100  RH  025%=      5-min Rain = 0
KEA1 260110Z 15016KT 32/10 A2995 RMK A01 T03230099  RH  025%=      5-min Rain = 0
KEA1 260111Z 14014KT 32/10 A2995 RMK A01 T03220099  RH  025%=      5-min Rain = 0
KEA1 260112Z 14016KT 32/10 A2995 RMK A01 T03220099  RH  025%=      5-min Rain = 0
KEA1 260113Z 15015KT 32/10 A2995 RMK A01 T03210098  RH  025%=      5-min Rain = 0
KEA1 260114Z 15016KT 32/10 A2995 RMK A01 T03210098  RH  025%=      5-min Rain = 0
KEA1 260115Z 14013KT 32/10 A2995 RMK A01 T03210098  RH  025%=      5-min Rain = 0
KEA1 260116Z 14015KT 32/10 A2995 RMK A01 T03200098  RH  025%=      5-min Rain = 0
KEA1 260117Z 15015KT 32/10 A2995 RMK A01 T03200097  RH  025%=      5-min Rain = 0
KEA1 260118Z 15013KT 32/10 A2996 RMK A01 T03200098  RH  025%=      5-min Rain = 0
KEA1 260119Z 14014KT 32/10 A2996 RMK A01 T03190098  RH  026%=      5-min Rain = 0
KEA1 260120Z 15014KT 32/10 A2996 RMK A01 T03180096  RH  025%=      5-min Rain = 0
KEA1 260121Z 14014KT 32/10 A2996 RMK A01 T03180095  RH  025%=      5-min Rain = 0
KEA1 260122Z 14014KT 32/10 A2996 RMK A01 T03180095  RH  025%=      5-min Rain = 0
KEA1 260123Z 14014KT 32/10 A2996 RMK A01 T03180096  RH  025%=      5-min Rain = 0
KEA1 260124Z 14014KT 32/10 A2996 RMK A01 T03170095  RH  025%=      5-min Rain = 0
KEA1 260125Z 14014KT 32/10 A2996 RMK A01 T03160095  RH  026%=      5-min Rain = 0
KEA1 260126Z 15015KT 32/09 A2996 RMK A01 T03160094  RH  025%=      5-min Rain = 0
KEA1 260127Z 14016KT 32/09 A2996 RMK A01 T03160094  RH  025%=      5-min Rain = 0
KEA1 260128Z 14017KT 32/09 A2996 RMK A01 T03160093  RH  025%=      5-min Rain = 0
KEA1 260129Z 14016KT 32/09 A2996 RMK A01 T03160092  RH  025%=      5-min Rain = 0
KEA1 260130Z 15017G22KT 32/09 A2996 RMK A01 T03160092  RH  025%=      5-min Rain = 0
KEA1 260131Z 14017KT 32/09 A2996 RMK A01 T03160091  RH  025%=      5-min Rain = 0
KEA1 260132Z 14015KT 32/09 A2997 RMK A01 T03160091  RH  025%=      5-min Rain = 0
KEA1 260133Z 14014KT 32/09 A2997 RMK A01 T03150092  RH  025%=      5-min Rain = 0
KEA1 260134Z 13013KT 31/09 A2997 RMK A01 T03140093  RH  025%=      5-min Rain = 0
KEA1 260135Z 13014KT 31/10 A2997 RMK A01 T03130097  RH  026%=      5-min Rain = 0
KEA1 260136Z 13015KT 31/10 A2997 RMK A01 T03130103  RH  027%=      5-min Rain = 0
KEA1 260137Z 13015G21KT 31/11 A2997 RMK A01 T03120108  RH  028%=      5-min Rain = 0
KEA1 260138Z 13016KT 31/11 A2998 RMK A01 T03120112  RH  029%=      5-min Rain = 0
KEA1 260139Z 12014KT 31/11 A2998 RMK A01 T03110114  RH  030%=      5-min Rain = 0
KEA1 260140Z 13016G22KT 31/12 A2998 RMK A01 T03100118  RH  031%=      5-min Rain = 0
KEA1 260141Z 12015KT 31/13 A2998 RMK A01 T03100125  RH  032%=      5-min Rain = 0
KEA1 260142Z 12013KT 31/14 A2998 RMK A01 T03080136  RH  035%=      5-min Rain = 0
KEA1 260143Z 12017G24KT 31/14 A2998 RMK A01 T03070141  RH  036%=      5-min Rain = 0
KEA1 260144Z 13020G27KT 31/15 A2998 RMK A01 T03050148  RH  038%=      5-min Rain = 0
KEA1 260145Z 12020G26KT 30/15 A2998 RMK A01 T03030150  RH  039%=      5-min Rain = 0
KEA1 260146Z 13023KT 30/15 A2998 RMK A01 T03020152  RH  040%=      5-min Rain = 0
KEA1 260147Z 12020KT 30/15 A2998 RMK A01 T03010152  RH  040%=      5-min Rain = 0
KEA1 260148Z 12022KT 30/15 A2998 RMK A01 T03000152  RH  041%=      5-min Rain = 0
KEA1 260149Z 12019KT 30/15 A2998 RMK A01 T03000152  RH  041%=      5-min Rain = 0
KEA1 260150Z 12022G27KT 30/15 A2998 RMK A01 T02990153  RH  041%=      5-min Rain = 0
KEA1 260151Z 12020G25KT 30/15 A2999 RMK A01 T02990153  RH  041%=      5-min Rain = 0
KEA1 260152Z 12023G28KT 30/15 A2998 RMK A01 T02990154  RH  041%=      5-min Rain = 0
KEA1 260153Z 12024G30KT 30/15 A2999 RMK A01 T02980154  RH  042%=      5-min Rain = 0
KEA1 260154Z 12022G27KT 30/15 A2999 RMK A01 T02980154  RH  042%=      5-min Rain = 0
KEA1 260155Z 12020KT 30/15 A2999 RMK A01 T02980154  RH  042%=      5-min Rain = 0
KEA1 260156Z 12017G23KT 30/16 A2999 RMK A01 T02970155  RH  042%=      5-min Rain = 0
KEA1 260157Z 12020G25KT 30/16 A2999 RMK A01 T02960155  RH  042%=      5-min Rain = 0
KEA1 260158Z 12021G27KT 30/16 A2999 RMK A01 T02950156  RH  043%=      5-min Rain = 0
KEA1 260159Z 12024KT 30/16 A2999 RMK A01 T02950155  RH  043%=      5-min Rain = 0
KEA1 260200Z 12021KT 29/16 A2999 RMK A01 T02940156  RH  043%=      5-min Rain = 0
KEA1 260201Z 12019G26KT 29/16 A30 RMK A01 T02940156  RH  043%=      5-min Rain = 0
KEA1 260202Z 12022KT 29/16 A30 RMK A01 T02930156  RH  043%=      5-min Rain = 0
KEA1 260203Z 12023G30KT 29/16 A30 RMK A01 T02930156  RH  043%=      5-min Rain = 0
KEA1 260204Z 12021G28KT 29/16 A30 RMK A01 T02930156  RH  043%=      5-min Rain = 0
KEA1 260205Z 11017G22KT 29/16 A30 RMK A01 T02930156  RH  043%=      5-min Rain = 0
KEA1 260206Z 11018G23KT 29/16 A30 RMK A01 T02920156  RH  044%=      5-min Rain = 0
KEA1 260207Z 12019G24KT 29/16 A30 RMK A01 T02910157  RH  044%=      5-min Rain = 0
KEA1 260208Z 11018G23KT 29/16 A30 RMK A01 T02910156  RH  044%=      5-min Rain = 0
KEA1 260209Z 11017KT 29/16 A30 RMK A01 T02900156  RH  044%=      5-min Rain = 0
KEA1 260210Z 11018G23KT 29/16 A30 RMK A01 T02890157  RH  045%=      5-min Rain = 0
KEA1 260211Z 11018KT 29/16 A3001 RMK A01 T02880156  RH  045%=      5-min Rain = 0
KEA1 260212Z 11019G25KT 29/16 A3001 RMK A01 T02880156  RH  045%=      5-min Rain = 0
KEA1 260213Z 11016KT 29/16 A3001 RMK A01 T02880157  RH  045%=      5-min Rain = 0
KEA1 260214Z 11018G23KT 29/16 A3001 RMK A01 T02870156  RH  045%=      5-min Rain = 0
KEA1 260215Z 11015G20KT 29/16 A3001 RMK A01 T02860156  RH  045%=      5-min Rain = 0
KEA1 260216Z 10015G20KT 29/16 A3001 RMK A01 T02860156  RH  045%=      5-min Rain = 0
KEA1 260217Z 10017KT 29/16 A3001 RMK A01 T02860156  RH  045%=      5-min Rain = 0
KEA1 260218Z 10017G22KT 29/16 A3002 RMK A01 T02860157  RH  046%=      5-min Rain = 0
KEA1 260219Z 08023G30KT 28/15 A3002 RMK A01 T02840154  RH  045%=      5-min Rain = 0
KEA1 260220Z 08022G30KT 27/14 A3002 RMK A01 T02730142  RH  045%=      5-min Rain = 0
KEA1 260221Z 08028G36KT 26/14 A3002 RMK A01 T02570138  RH  048%=      5-min Rain = 0
KEA1 260222Z 08026KT 25/14 A3002 RMK A01 T02480138  RH  050%=      5-min Rain = 0
KEA1 260223Z 08023G29KT 25/14 A3002 RMK A01 T02450139  RH  052%=      5-min Rain = 0
KEA1 260224Z 08022G27KT 24/14 A3002 RMK A01 T02430139  RH  052%=      5-min Rain = 0
KEA1 260225Z 08022G28KT 24/14 A3003 RMK A01 T02410139  RH  053%=      5-min Rain = 0
KEA1 260226Z 09017KT 24/14 A3003 RMK A01 T02400139  RH  053%=      5-min Rain = 0
KEA1 260227Z 08027G34KT 24/14 A3002 RMK A01 T02400139  RH  053%=      5-min Rain = 0
KEA1 260228Z 08021G28KT 24/14 A3002 RMK A01 T02390139  RH  054%=      5-min Rain = 0
KEA1 260229Z 08022G28KT 24/14 A3002 RMK A01 T02390139  RH  054%=      5-min Rain = 0
KEA1 260230Z 08023G29KT 24/14 A3003 RMK A01 T02380139  RH  054%=      5-min Rain = 0
KEA1 260231Z 08022G27KT 24/14 A3003 RMK A01 T02380139  RH  054%=      5-min Rain = 0
KEA1 260232Z 08023G28KT 24/14 A3003 RMK A01 T02380139  RH  054%=      5-min Rain = 0
KEA1 260233Z 08022G29KT 24/14 A3003 RMK A01 T02370139  RH  054%=      5-min Rain = 0
KEA1 260234Z 08020G28KT 24/14 A3003 RMK A01 T02360138  RH  054%=      5-min Rain = 0
KEA1 260235Z 08023G28KT 24/14 A3003 RMK A01 T02350138  RH  055%=      5-min Rain = 0
KEA1 260236Z 08022KT 24/14 A3003 RMK A01 T02350139  RH  055%=      5-min Rain = 0
KEA1 260237Z 08025G30KT 23/14 A3003 RMK A01 T02340139  RH  055%=      5-min Rain = 0
KEA1 260238Z 08018G24KT 23/14 A3003 RMK A01 T02340139  RH  055%=      5-min Rain = 0
KEA1 260239Z 08018G23KT 23/14 A3004 RMK A01 T02330139  RH  055%=      5-min Rain = 0
KEA1 260240Z 09017KT 23/14 A3004 RMK A01 T02330139  RH  055%=      5-min Rain = 0
KEA1 260241Z 09019G24KT 23/14 A3004 RMK A01 T02320139  RH  056%=      5-min Rain = 0
KEA1 260242Z 08019G25KT 23/14 A3004 RMK A01 T02320138  RH  055%=      5-min Rain = 0
KEA1 260243Z 09018G24KT 23/14 A3004 RMK A01 T02320138  RH  055%=      5-min Rain = 0
KEA1 260244Z 09017KT 23/14 A3004 RMK A01 T02330139  RH  055%=      5-min Rain = 0
KEA1 260245Z 09015KT 23/14 A3004 RMK A01 T02330139  RH  055%=      5-min Rain = 0
KEA1 260246Z 09019KT 23/14 A3004 RMK A01 T02330139  RH  055%=      5-min Rain = 0
KEA1 260247Z 09018KT 23/14 A3004 RMK A01 T02330139  RH  055%=      5-min Rain = 0
KEA1 260248Z 09019G24KT 23/14 A3004 RMK A01 T02330139  RH  055%=      5-min Rain = 0
KEA1 260249Z 09017G22KT 23/14 A3004 RMK A01 T02340139  RH  055%=      5-min Rain = 0
KEA1 260250Z 09015G21KT 23/14 A3004 RMK A01 T02340139  RH  055%=      5-min Rain = 0
KEA1 260251Z 09022G29KT 23/14 A3004 RMK A01 T02340139  RH  055%=      5-min Rain = 0
KEA1 260252Z 09019KT 23/14 A3004 RMK A01 T02340140  RH  055%=      5-min Rain = 0
KEA1 260253Z 09020G25KT 23/14 A3004 RMK A01 T02340139  RH  055%=      5-min Rain = 0
KEA1 260254Z 09022G27KT 23/14 A3004 RMK A01 T02340139  RH  055%=      5-min Rain = 0
KEA1 260255Z 09020G25KT 24/14 A3004 RMK A01 T02350139  RH  055%=      5-min Rain = 0
KEA1 260256Z 09017G23KT 24/14 A3005 RMK A01 T02350139  RH  055%=      5-min Rain = 0
KEA1 260257Z 09019KT 24/14 A3005 RMK A01 T02350140  RH  055%=      5-min Rain = 0
KEA1 260258Z 09021G26KT 24/14 A3005 RMK A01 T02350139  RH  055%=      5-min Rain = 0
KEA1 260259Z 09018KT 24/14 A3005 RMK A01 T02350140  RH  055%=      5-min Rain = 0
KEA1 260300Z 09018G24KT 24/14 A3005 RMK A01 T02350140  RH  055%=      5-min Rain = 0
KEA1 260301Z 09019KT 24/14 A3005 RMK A01 T02350140  RH  055%=      5-min Rain = 0
KEA1 260302Z 09020KT 24/14 A3005 RMK A01 T02350140  RH  055%=      5-min Rain = 0
KEA1 260303Z 09020G25KT 24/14 A3006 RMK A01 T02350141  RH  055%=      5-min Rain = 0
KEA1 260304Z 09018G24KT 24/14 A3006 RMK A01 T02350141  RH  055%=      5-min Rain = 0
KEA1 260305Z 09020G25KT 24/14 A3006 RMK A01 T02350141  RH  055%=      5-min Rain = 0
KEA1 260306Z 09020G25KT 24/14 A3006 RMK A01 T02350141  RH  055%=      5-min Rain = 0
KEA1 260307Z 09015G20KT 24/14 A3006 RMK A01 T02350141  RH  055%=      5-min Rain = 0
KEA1 260308Z 09013G18KT 24/14 A3006 RMK A01 T02350141  RH  056%=      5-min Rain = 0
KEA1 260309Z 09016G21KT 23/14 A3006 RMK A01 T02340141  RH  056%=      5-min Rain = 0
KEA1 260310Z 09016KT 23/14 A3006 RMK A01 T02340141  RH  056%=      5-min Rain = 0
KEA1 260311Z 10018KT 23/14 A3006 RMK A01 T02340141  RH  056%=      5-min Rain = 0
KEA1 260312Z 09021G26KT 23/14 A3006 RMK A01 T02340141  RH  056%=      5-min Rain = 0
KEA1 260313Z 09020KT 24/14 A3006 RMK A01 T02350141  RH  056%=      5-min Rain = 0
KEA1 260314Z 10019G24KT 24/14 A3006 RMK A01 T02350141  RH  056%=      5-min Rain = 0
KEA1 260315Z 09021G28KT 24/14 A3006 RMK A01 T02350141  RH  055%=      5-min Rain = 0
KEA1 260316Z 10019G25KT 24/14 A3006 RMK A01 T02350141  RH  055%=      5-min Rain = 0
KEA1 260317Z 09020KT 24/14 A3006 RMK A01 T02350141  RH  056%=      5-min Rain = 0
KEA1 260318Z 09018G25KT 24/14 A3006 RMK A01 T02350141  RH  056%=      5-min Rain = 0
KEA1 260319Z 09018G24KT 23/14 A3006 RMK A01 T02340141  RH  056%=      5-min Rain = 0
KEA1 260320Z 09016G22KT 23/14 A3006 RMK A01 T02340141  RH  056%=      5-min Rain = 0
KEA1 260321Z 09022KT 23/14 A3006 RMK A01 T02340141  RH  056%=      5-min Rain = 0
KEA1 260322Z 09017G23KT 23/14 A3006 RMK A01 T02340141  RH  056%=      5-min Rain = 0
KEA1 260323Z 09016KT 23/14 A3006 RMK A01 T02340141  RH  056%=      5-min Rain = 0
KEA1 260324Z 10017KT 23/14 A3006 RMK A01 T02330141  RH  056%=      5-min Rain = 0
KEA1 260325Z 10019KT 23/14 A3007 RMK A01 T02330141  RH  056%=      5-min Rain = 0
KEA1 260326Z 10016KT 23/14 A3007 RMK A01 T02330140  RH  056%=      5-min Rain = 0
KEA1 260327Z 10018G23KT 23/14 A3007 RMK A01 T02330140  RH  056%=      5-min Rain = 0
KEA1 260328Z 10018G23KT 23/14 A3007 RMK A01 T02330140  RH  056%=      5-min Rain = 0
KEA1 260329Z 10021KT 23/14 A3007 RMK A01 T02340140  RH  056%=      5-min Rain = 0
KEA1 260330Z 10020KT 23/14 A3007 RMK A01 T02340139  RH  055%=      5-min Rain = 0
KEA1 260331Z 10015KT 23/14 A3007 RMK A01 T02340139  RH  055%=      5-min Rain = 0
KEA1 260332Z 10018KT 23/14 A3007 RMK A01 T02340139  RH  055%=      5-min Rain = 0
KEA1 260333Z 10021G28KT 23/14 A3007 RMK A01 T02340139  RH  055%=      5-min Rain = 0
KEA1 260334Z 10021KT 24/14 A3007 RMK A01 T02350139  RH  055%=      5-min Rain = 0
KEA1 260335Z 10017G27KT 24/14 A3008 RMK A01 T02350139  RH  055%=      5-min Rain = 0
KEA1 260336Z 10023G28KT 24/14 A3008 RMK A01 T02350139  RH  055%=      5-min Rain = 0
KEA1 260337Z 10021KT 24/14 A3008 RMK A01 T02360139  RH  054%=      5-min Rain = 0
KEA1 260338Z 10018G23KT 24/14 A3008 RMK A01 T02360139  RH  054%=      5-min Rain = 0
KEA1 260339Z 10019G24KT 24/14 A3008 RMK A01 T02360139  RH  054%=      5-min Rain = 0
KEA1 260340Z 10018G24KT 24/14 A3008 RMK A01 T02360139  RH  054%=      5-min Rain = 0
KEA1 260341Z 10016G22KT 24/14 A3008 RMK A01 T02360139  RH  055%=      5-min Rain = 0
KEA1 260342Z 10019KT 24/14 A3008 RMK A01 T02350139  RH  055%=      5-min Rain = 0
KEA1 260343Z 10015G21KT 24/14 A3008 RMK A01 T02350139  RH  055%=      5-min Rain = 0
KEA1 260344Z 10017G23KT 24/14 A3009 RMK A01 T02350139  RH  055%=      5-min Rain = 0
KEA1 260345Z 10022KT 23/14 A3009 RMK A01 T02340139  RH  055%=      5-min Rain = 0
KEA1 260346Z 10022KT 23/14 A3009 RMK A01 T02340139  RH  055%=      5-min Rain = 0
KEA1 260347Z 10018G23KT 23/14 A3009 RMK A01 T02340139  RH  055%=      5-min Rain = 0
KEA1 260348Z 10017KT 23/14 A3009 RMK A01 T02340139  RH  055%=      5-min Rain = 0
KEA1 260349Z 10015KT 23/14 A3009 RMK A01 T02330139  RH  055%=      5-min Rain = 0
KEA1 260350Z 10018KT 23/14 A3009 RMK A01 T02330139  RH  056%=      5-min Rain = 0
KEA1 260351Z 10020KT 23/14 A3009 RMK A01 T02320139  RH  056%=      5-min Rain = 0
KEA1 260352Z 10020G25KT 23/14 A3009 RMK A01 T02320139  RH  056%=      5-min Rain = 0
KEA1 260353Z 10015KT 23/14 A3009 RMK A01 T02320139  RH  056%=      5-min Rain = 0
KEA1 260354Z 10015G20KT 23/14 A3009 RMK A01 T02320140  RH  056%=      5-min Rain = 0
KEA1 260355Z 10017G23KT 23/14 A301 RMK A01 T02320140  RH  056%=      5-min Rain = 0
KEA1 260356Z 11018KT 23/14 A301 RMK A01 T02310140  RH  056%=      5-min Rain = 0
KEA1 260357Z 11013KT 23/14 A301 RMK A01 T02310140  RH  056%=      5-min Rain = 0
KEA1 260358Z 11017G22KT 23/14 A301 RMK A01 T02320141  RH  057%=      5-min Rain = 0
KEA1 260359Z 11019KT 23/14 A301 RMK A01 T02310141  RH  057%=      5-min Rain = 0
KEA1 260400Z 11018G23KT 23/14 A301 RMK A01 T02320140  RH  056%=      5-min Rain = 0
KEA1 260401Z 10017KT 23/14 A301 RMK A01 T02320141  RH  056%=      5-min Rain = 0
KEA1 260402Z 11015G20KT 23/14 A301 RMK A01 T02320141  RH  056%=      5-min Rain = 0
KEA1 260403Z 10018KT 23/14 A301 RMK A01 T02320141  RH  057%=      5-min Rain = 0
KEA1 260404Z 10015KT 23/14 A301 RMK A01 T02320141  RH  057%=      5-min Rain = 0
KEA1 260405Z 11019KT 23/14 A301 RMK A01 T02320141  RH  057%=      5-min Rain = 0
KEA1 260406Z 10018KT 23/14 A301 RMK A01 T02320141  RH  056%=      5-min Rain = 0
KEA1 260407Z 10016G21KT 23/14 A301 RMK A01 T02320141  RH  056%=      5-min Rain = 0
KEA1 260408Z 10017G23KT 23/14 A301 RMK A01 T02320141  RH  056%=      5-min Rain = 0
KEA1 260409Z 11019G24KT 23/14 A301 RMK A01 T02320140  RH  056%=      5-min Rain = 0
KEA1 260410Z 10018KT 23/14 A301 RMK A01 T02320140  RH  056%=      5-min Rain = 0
KEA1 260411Z 11019G24KT 23/14 A301 RMK A01 T02330140  RH  056%=      5-min Rain = 0
KEA1 260412Z 11022G28KT 23/14 A301 RMK A01 T02330140  RH  056%=      5-min Rain = 0
KEA1 260413Z 10019KT 23/14 A301 RMK A01 T02330140  RH  056%=      5-min Rain = 0
KEA1 260414Z 11016KT 23/14 A301 RMK A01 T02330140  RH  056%=      5-min Rain = 0
KEA1 260415Z 11019KT 23/14 A301 RMK A01 T02330139  RH  056%=      5-min Rain = 0
KEA1 260416Z 11022KT 23/14 A301 RMK A01 T02330139  RH  056%=      5-min Rain = 0
KEA1 260417Z 11018G25KT 23/14 A301 RMK A01 T02330139  RH  056%=      5-min Rain = 0
KEA1 260418Z 11019KT 23/14 A301 RMK A01 T02330139  RH  055%=      5-min Rain = 0
KEA1 260419Z 11018KT 23/14 A301 RMK A01 T02330139  RH  055%=      5-min Rain = 0
KEA1 260420Z 11019G24KT 23/14 A301 RMK A01 T02330139  RH  055%=      5-min Rain = 0
KEA1 260421Z 11019G25KT 23/14 A301 RMK A01 T02330139  RH  055%=      5-min Rain = 0
KEA1 260422Z 11018KT 23/14 A301 RMK A01 T02330139  RH  055%=      5-min Rain = 0
KEA1 260423Z 11019G24KT 23/14 A301 RMK A01 T02330139  RH  055%=      5-min Rain = 0
KEA1 260424Z 11018G24KT 23/14 A301 RMK A01 T02330139  RH  055%=      5-min Rain = 0
KEA1 260425Z 11018KT 23/14 A301 RMK A01 T02330139  RH  055%=      5-min Rain = 0
KEA1 260426Z 11018G23KT 23/14 A301 RMK A01 T02330139  RH  055%=      5-min Rain = 0
KEA1 260427Z 11021G27KT 23/14 A3011 RMK A01 T02330139  RH  055%=      5-min Rain = 0
KEA1 260428Z 11022G27KT 23/14 A301 RMK A01 T02340139  RH  055%=      5-min Rain = 0
KEA1 260429Z 11019KT 24/14 A301 RMK A01 T02350139  RH  055%=      5-min Rain = 0
KEA1 260430Z 11023G29KT 24/14 A301 RMK A01 T02350140  RH  055%=      5-min Rain = 0
KEA1 260431Z 11021G26KT 24/14 A301 RMK A01 T02350140  RH  055%=      5-min Rain = 0
KEA1 260432Z 11018G25KT 24/14 A301 RMK A01 T02360140  RH  055%=      5-min Rain = 0
KEA1 260433Z 11021KT 24/14 A301 RMK A01 T02360140  RH  055%=      5-min Rain = 0
KEA1 260434Z 11019G26KT 24/14 A301 RMK A01 T02360140  RH  055%=      5-min Rain = 0
KEA1 260435Z 12019KT 24/14 A3011 RMK A01 T02350140  RH  055%=      5-min Rain = 0
KEA1 260436Z 11023G29KT 24/14 A3011 RMK A01 T02360141  RH  055%=      5-min Rain = 0
KEA1 260437Z 11024G31KT 24/14 A3011 RMK A01 T02360141  RH  055%=      5-min Rain = 0
KEA1 260438Z 11022G28KT 24/14 A3011 RMK A01 T02370141  RH  055%=      5-min Rain = 0
KEA1 260439Z 11018G23KT 24/14 A3011 RMK A01 T02360141  RH  055%=      5-min Rain = 0
KEA1 260440Z 11016KT 24/14 A3011 RMK A01 T02360141  RH  055%=      5-min Rain = 0
KEA1 260441Z 12019KT 24/14 A3011 RMK A01 T02350141  RH  055%=      5-min Rain = 0
KEA1 260442Z 12019G24KT 24/14 A3011 RMK A01 T02350141  RH  055%=      5-min Rain = 0
KEA1 260443Z 12022G29KT 24/14 A3011 RMK A01 T02350141  RH  056%=      5-min Rain = 0
KEA1 260444Z 12018G26KT 24/14 A3011 RMK A01 T02350141  RH  056%=      5-min Rain = 0
KEA1 260445Z 12021KT 24/14 A3011 RMK A01 T02350141  RH  056%=      5-min Rain = 0
KEA1 260446Z 12020G25KT 24/14 A3011 RMK A01 T02350141  RH  056%=      5-min Rain = 0
KEA1 260447Z 12019G26KT 24/14 A3011 RMK A01 T02350142  RH  056%=      5-min Rain = 0
KEA1 260448Z 12021KT 23/14 A3011 RMK A01 T02340141  RH  056%=      5-min Rain = 0
KEA1 260449Z 12019G25KT 23/14 A3011 RMK A01 T02340142  RH  056%=      5-min Rain = 0
KEA1 260450Z 12022G27KT 23/14 A3011 RMK A01 T02340142  RH  056%=      5-min Rain = 0
KEA1 260451Z 12020G27KT 23/14 A3011 RMK A01 T02340142  RH  056%=      5-min Rain = 0
KEA1 260452Z 12023G30KT 23/14 A3011 RMK A01 T02340142  RH  056%=      5-min Rain = 0
KEA1 260453Z 12019G24KT 23/14 A301 RMK A01 T02340142  RH  056%=      5-min Rain = 0
KEA1 260454Z 12019G24KT 23/14 A3011 RMK A01 T02340143  RH  056%=      5-min Rain = 0
KEA1 260455Z 12019G27KT 23/14 A3011 RMK A01 T02330143  RH  057%=      5-min Rain = 0
KEA1 260456Z 12022G27KT 23/14 A3011 RMK A01 T02330143  RH  057%=      5-min Rain = 0
KEA1 260457Z 12023G30KT 23/14 A3011 RMK A01 T02330143  RH  057%=      5-min Rain = 0
KEA1 260458Z 12023G31KT 23/14 A3011 RMK A01 T02330142  RH  057%=      5-min Rain = 0
KEA1 260459Z 12027KT 23/14 A301 RMK A01 T02340143  RH  057%=      5-min Rain = 0

Page generated in 0.0712 seconds.